<?xml version='1.0' encoding='UTF-8'?><gpx version="1.1" creator="JPX - https://github.com/jenetics/jpx" xmlns="http://www.topografix.com/GPX/1/1"><trk><trkseg><trkpt lat="45.7050554" lon="9.5399015"><ele>250.0</ele><time>2026-04-05T10:26:42.438Z</time></trkpt><trkpt lat="45.7049897" lon="9.5398737"><ele>250.0</ele><time>2026-04-05T10:26:45.452Z</time></trkpt><trkpt lat="45.7050352" lon="9.5398025"><ele>250.0</ele><time>2026-04-05T10:26:57.407Z</time></trkpt><trkpt lat="45.7050976" lon="9.5397494"><ele>250.0</ele><time>2026-04-05T10:27:04.44Z</time></trkpt><trkpt lat="45.7051228" lon="9.5396658"><ele>250.0</ele><time>2026-04-05T10:27:13.482Z</time></trkpt><trkpt lat="45.7051463" lon="9.5395759"><ele>250.0</ele><time>2026-04-05T10:27:19.409Z</time></trkpt><trkpt lat="45.7051613" lon="9.539477"><ele>250.0</ele><time>2026-04-05T10:27:23.428Z</time></trkpt><trkpt lat="45.7051753" lon="9.539387"><ele>250.0</ele><time>2026-04-05T10:27:27.446Z</time></trkpt><trkpt lat="45.7052027" lon="9.5392899"><ele>250.0</ele><time>2026-04-05T10:27:33.475Z</time></trkpt><trkpt lat="45.7052342" lon="9.5392005"><ele>250.0</ele><time>2026-04-05T10:27:38.334Z</time></trkpt><trkpt lat="45.705259" lon="9.539094"><ele>250.0</ele><time>2026-04-05T10:27:43.394Z</time></trkpt><trkpt lat="45.7052834" lon="9.5389981"><ele>250.0</ele><time>2026-04-05T10:27:48.296Z</time></trkpt><trkpt lat="45.7053145" lon="9.5388937"><ele>250.0</ele><time>2026-04-05T10:27:54.293Z</time></trkpt><trkpt lat="45.7053416" lon="9.5387962"><ele>250.0</ele><time>2026-04-05T10:28:00.291Z</time></trkpt><trkpt lat="45.7053706" lon="9.5387112"><ele>250.71428571428572</ele><time>2026-04-05T10:28:07.153Z</time></trkpt><trkpt lat="45.7054334" lon="9.5387586"><ele>251.42857142857144</ele><time>2026-04-05T10:28:13.215Z</time></trkpt><trkpt lat="45.7054859" lon="9.5388092"><ele>252.14285714285717</ele><time>2026-04-05T10:28:18.193Z</time></trkpt><trkpt lat="45.7055429" lon="9.5388756"><ele>252.85714285714286</ele><time>2026-04-05T10:28:23.232Z</time></trkpt><trkpt lat="45.7056179" lon="9.5388926"><ele>253.5714285714286</ele><time>2026-04-05T10:28:29.135Z</time></trkpt><trkpt lat="45.7056807" lon="9.5389256"><ele>254.2857142857143</ele><time>2026-04-05T10:28:34.013Z</time></trkpt><trkpt lat="45.7057366" lon="9.5389765"><ele>255.0</ele><time>2026-04-05T10:28:38.954Z</time></trkpt><trkpt lat="45.7057973" lon="9.5390136"><ele>255.0</ele><time>2026-04-05T10:28:45.751Z</time></trkpt><trkpt lat="45.7058467" lon="9.5390754"><ele>255.00000000000003</ele><time>2026-04-05T10:28:50.713Z</time></trkpt><trkpt lat="45.7058903" lon="9.5391644"><ele>255.0</ele><time>2026-04-05T10:28:55.296Z</time></trkpt><trkpt lat="45.7059612" lon="9.5391984"><ele>255.0</ele><time>2026-04-05T10:29:00.253Z</time></trkpt><trkpt lat="45.7060276" lon="9.5391842"><ele>255.00000000000003</ele><time>2026-04-05T10:29:04.191Z</time></trkpt><trkpt lat="45.706098" lon="9.5391861"><ele>255.0</ele><time>2026-04-05T10:29:08.135Z</time></trkpt><trkpt lat="45.7061653" lon="9.5392159"><ele>255.0</ele><time>2026-04-05T10:29:12.112Z</time></trkpt><trkpt lat="45.7062329" lon="9.5392442"><ele>255.0</ele><time>2026-04-05T10:29:16.111Z</time></trkpt><trkpt lat="45.7062982" lon="9.539299"><ele>255.00000000000003</ele><time>2026-04-05T10:29:21.054Z</time></trkpt><trkpt lat="45.7063622" lon="9.5393535"><ele>255.0</ele><time>2026-04-05T10:29:27.013Z</time></trkpt><trkpt lat="45.706415" lon="9.5394287"><ele>255.0</ele><time>2026-04-05T10:29:32.994Z</time></trkpt><trkpt lat="45.706474" lon="9.5394767"><ele>255.00000000000003</ele><time>2026-04-05T10:29:38.895Z</time></trkpt><trkpt lat="45.7065374" lon="9.5394934"><ele>255.0</ele><time>2026-04-05T10:29:44.775Z</time></trkpt><trkpt lat="45.7066008" lon="9.5395444"><ele>255.0</ele><time>2026-04-05T10:29:50.672Z</time></trkpt><trkpt lat="45.706669" lon="9.5395826"><ele>255.0</ele><time>2026-04-05T10:29:55.573Z</time></trkpt><trkpt lat="45.7067322" lon="9.5395986"><ele>255.00000000000003</ele><time>2026-04-05T10:30:00.511Z</time></trkpt><trkpt lat="45.7067831" lon="9.5395406"><ele>255.0</ele><time>2026-04-05T10:30:07.487Z</time></trkpt><trkpt lat="45.7067786" lon="9.539448"><ele>255.0</ele><time>2026-04-05T10:30:12.509Z</time></trkpt><trkpt lat="45.7067438" lon="9.5393675"><ele>255.00000000000003</ele><time>2026-04-05T10:30:18.455Z</time></trkpt><trkpt lat="45.706712" lon="9.5392808"><ele>255.0</ele><time>2026-04-05T10:30:24.332Z</time></trkpt><trkpt lat="45.7067069" lon="9.5391662"><ele>255.0</ele><time>2026-04-05T10:30:29.235Z</time></trkpt><trkpt lat="45.7067202" lon="9.5390519"><ele>255.42857142857144</ele><time>2026-04-05T10:30:33.132Z</time></trkpt><trkpt lat="45.7067315" lon="9.5389507"><ele>255.8571428571429</ele><time>2026-04-05T10:30:37.015Z</time></trkpt><trkpt lat="45.7067437" lon="9.5388528"><ele>256.2857142857143</ele><time>2026-04-05T10:30:41.912Z</time></trkpt><trkpt lat="45.7067403" lon="9.5387587"><ele>256.7142857142857</ele><time>2026-04-05T10:30:47.754Z</time></trkpt><trkpt lat="45.7067309" lon="9.5386581"><ele>257.1428571428571</ele><time>2026-04-05T10:30:53.612Z</time></trkpt><trkpt lat="45.7067432" lon="9.5385637"><ele>257.57142857142856</ele><time>2026-04-05T10:31:00.395Z</time></trkpt><trkpt lat="45.7067614" lon="9.5384574"><ele>258.0</ele><time>2026-04-05T10:31:06.196Z</time></trkpt><trkpt lat="45.7068266" lon="9.5384157"><ele>257.99999999999994</ele><time>2026-04-05T10:31:10.476Z</time></trkpt><trkpt lat="45.7069016" lon="9.5384081"><ele>258.0</ele><time>2026-04-05T10:31:16.404Z</time></trkpt><trkpt lat="45.7069784" lon="9.538379"><ele>258.0</ele><time>2026-04-05T10:31:22.431Z</time></trkpt><trkpt lat="45.7070422" lon="9.5383691"><ele>258.0</ele><time>2026-04-05T10:31:27.456Z</time></trkpt><trkpt lat="45.7071028" lon="9.5383438"><ele>258.0</ele><time>2026-04-05T10:31:31.474Z</time></trkpt><trkpt lat="45.7071696" lon="9.5383331"><ele>257.99999999999994</ele><time>2026-04-05T10:31:38.432Z</time></trkpt><trkpt lat="45.7072453" lon="9.5383209"><ele>258.0</ele><time>2026-04-05T10:31:45.315Z</time></trkpt><trkpt lat="45.7073184" lon="9.5382897"><ele>258.4285714285714</ele><time>2026-04-05T10:31:49.234Z</time></trkpt><trkpt lat="45.7073889" lon="9.5382742"><ele>258.85714285714283</ele><time>2026-04-05T10:31:53.15Z</time></trkpt><trkpt lat="45.7074641" lon="9.5382464"><ele>259.2857142857143</ele><time>2026-04-05T10:31:57.075Z</time></trkpt><trkpt lat="45.7075332" lon="9.538191"><ele>259.71428571428567</ele><time>2026-04-05T10:32:00.992Z</time></trkpt><trkpt lat="45.7075968" lon="9.53814"><ele>260.1428571428571</ele><time>2026-04-05T10:32:06.894Z</time></trkpt><trkpt lat="45.7076616" lon="9.538103"><ele>260.57142857142856</ele><time>2026-04-05T10:32:13.831Z</time></trkpt><trkpt lat="45.7077315" lon="9.5380807"><ele>261.0</ele><time>2026-04-05T10:32:19.754Z</time></trkpt><trkpt lat="45.7078128" lon="9.538053"><ele>261.57142857142856</ele><time>2026-04-05T10:32:24.711Z</time></trkpt><trkpt lat="45.7078573" lon="9.5379799"><ele>262.1428571428571</ele><time>2026-04-05T10:32:29.573Z</time></trkpt><trkpt lat="45.7078899" lon="9.5378911"><ele>262.71428571428567</ele><time>2026-04-05T10:32:37.313Z</time></trkpt><trkpt lat="45.7079301" lon="9.537792"><ele>263.2857142857143</ele><time>2026-04-05T10:32:42.192Z</time></trkpt><trkpt lat="45.7079578" lon="9.5376951"><ele>263.85714285714283</ele><time>2026-04-05T10:32:46.174Z</time></trkpt><trkpt lat="45.7079871" lon="9.5376136"><ele>264.4285714285714</ele><time>2026-04-05T10:32:50.093Z</time></trkpt><trkpt lat="45.7080222" lon="9.5375287"><ele>265.0</ele><time>2026-04-05T10:32:54.051Z</time></trkpt><trkpt lat="45.7080467" lon="9.5374404"><ele>264.99999999999994</ele><time>2026-04-05T10:32:57.996Z</time></trkpt><trkpt lat="45.7080544" lon="9.5373438"><ele>265.0</ele><time>2026-04-05T10:33:03.152Z</time></trkpt><trkpt lat="45.708093" lon="9.5372618"><ele>265.0</ele><time>2026-04-05T10:33:09.036Z</time></trkpt><trkpt lat="45.7081264" lon="9.5371628"><ele>265.0</ele><time>2026-04-05T10:33:13.992Z</time></trkpt><trkpt lat="45.7081634" lon="9.5370812"><ele>265.0</ele><time>2026-04-05T10:33:21.076Z</time></trkpt><trkpt lat="45.7081878" lon="9.5369949"><ele>264.99999999999994</ele><time>2026-04-05T10:33:27.112Z</time></trkpt><trkpt lat="45.7081882" lon="9.536901"><ele>265.0</ele><time>2026-04-05T10:33:32.251Z</time></trkpt><trkpt lat="45.7081866" lon="9.5367966"><ele>265.1428571428571</ele><time>2026-04-05T10:33:40.433Z</time></trkpt><trkpt lat="45.7082006" lon="9.536702"><ele>265.2857142857143</ele><time>2026-04-05T10:33:46.494Z</time></trkpt><trkpt lat="45.7082143" lon="9.5366108"><ele>265.42857142857144</ele><time>2026-04-05T10:33:50.412Z</time></trkpt><trkpt lat="45.7082358" lon="9.5365186"><ele>265.57142857142856</ele><time>2026-04-05T10:33:53.427Z</time></trkpt><trkpt lat="45.7082457" lon="9.5364229"><ele>265.7142857142857</ele><time>2026-04-05T10:33:57.433Z</time></trkpt><trkpt lat="45.7082038" lon="9.5363525"><ele>265.85714285714283</ele><time>2026-04-05T10:34:00.351Z</time></trkpt><trkpt lat="45.7081861" lon="9.5362617"><ele>266.0</ele><time>2026-04-05T10:34:05.397Z</time></trkpt><trkpt lat="45.7082218" lon="9.5361846"><ele>266.2857142857143</ele><time>2026-04-05T10:34:09.473Z</time></trkpt><trkpt lat="45.7082494" lon="9.5360913"><ele>266.57142857142856</ele><time>2026-04-05T10:34:13.451Z</time></trkpt><trkpt lat="45.7082796" lon="9.5359921"><ele>266.8571428571429</ele><time>2026-04-05T10:34:19.446Z</time></trkpt><trkpt lat="45.7083113" lon="9.5359098"><ele>267.1428571428571</ele><time>2026-04-05T10:34:25.473Z</time></trkpt><trkpt lat="45.7083083" lon="9.5358173"><ele>267.42857142857144</ele><time>2026-04-05T10:34:33.51Z</time></trkpt><trkpt lat="45.7083132" lon="9.5357253"><ele>267.7142857142857</ele><time>2026-04-05T10:34:37.429Z</time></trkpt><trkpt lat="45.7083238" lon="9.5356185"><ele>268.0</ele><time>2026-04-05T10:34:42.451Z</time></trkpt><trkpt lat="45.7083327" lon="9.5355223"><ele>268.0</ele><time>2026-04-05T10:34:47.475Z</time></trkpt><trkpt lat="45.7083371" lon="9.5354197"><ele>268.0</ele><time>2026-04-05T10:34:51.493Z</time></trkpt><trkpt lat="45.708347" lon="9.5353185"><ele>268.0</ele><time>2026-04-05T10:34:56.415Z</time></trkpt><trkpt lat="45.7083551" lon="9.5352158"><ele>268.0</ele><time>2026-04-05T10:35:02.443Z</time></trkpt><trkpt lat="45.7083673" lon="9.5351158"><ele>268.0</ele><time>2026-04-05T10:35:09.453Z</time></trkpt><trkpt lat="45.708415" lon="9.5350558"><ele>268.0</ele><time>2026-04-05T10:35:15.504Z</time></trkpt><trkpt lat="45.7084672" lon="9.5350036"><ele>268.0</ele><time>2026-04-05T10:35:24.394Z</time></trkpt><trkpt lat="45.708515" lon="9.5349264"><ele>268.0</ele><time>2026-04-05T10:35:30.152Z</time></trkpt><trkpt lat="45.7085561" lon="9.534853"><ele>268.0</ele><time>2026-04-05T10:35:33.111Z</time></trkpt><trkpt lat="45.7085981" lon="9.5347608"><ele>268.0</ele><time>2026-04-05T10:35:36.995Z</time></trkpt><trkpt lat="45.7086472" lon="9.5347017"><ele>268.0</ele><time>2026-04-05T10:35:40.832Z</time></trkpt><trkpt lat="45.7087052" lon="9.5346317"><ele>268.0</ele><time>2026-04-05T10:35:45.695Z</time></trkpt><trkpt lat="45.7087576" lon="9.5345682"><ele>268.0</ele><time>2026-04-05T10:35:50.591Z</time></trkpt><trkpt lat="45.7088133" lon="9.5345135"><ele>268.0</ele><time>2026-04-05T10:35:57.434Z</time></trkpt><trkpt lat="45.7088786" lon="9.5344842"><ele>268.57142857142856</ele><time>2026-04-05T10:36:03.375Z</time></trkpt><trkpt lat="45.7089398" lon="9.5344557"><ele>269.1428571428571</ele><time>2026-04-05T10:36:08.233Z</time></trkpt><trkpt lat="45.7090111" lon="9.5344467"><ele>269.71428571428567</ele><time>2026-04-05T10:36:13.035Z</time></trkpt><trkpt lat="45.7090747" lon="9.5344257"><ele>270.2857142857143</ele><time>2026-04-05T10:36:16.892Z</time></trkpt><trkpt lat="45.7091445" lon="9.5343926"><ele>270.85714285714283</ele><time>2026-04-05T10:36:21.756Z</time></trkpt><trkpt lat="45.7092057" lon="9.5343617"><ele>271.4285714285714</ele><time>2026-04-05T10:36:26.652Z</time></trkpt><trkpt lat="45.7092719" lon="9.5343138"><ele>272.0</ele><time>2026-04-05T10:36:32.476Z</time></trkpt><trkpt lat="45.7093272" lon="9.5342667"><ele>271.99999999999994</ele><time>2026-04-05T10:36:37.311Z</time></trkpt><trkpt lat="45.7093974" lon="9.534236"><ele>272.0</ele><time>2026-04-05T10:36:43.153Z</time></trkpt><trkpt lat="45.7094613" lon="9.5342232"><ele>272.0</ele><time>2026-04-05T10:36:48.055Z</time></trkpt><trkpt lat="45.7095267" lon="9.5341891"><ele>272.0</ele><time>2026-04-05T10:36:52.013Z</time></trkpt><trkpt lat="45.7096068" lon="9.534152"><ele>272.0</ele><time>2026-04-05T10:36:55.93Z</time></trkpt><trkpt lat="45.7096748" lon="9.5341046"><ele>271.99999999999994</ele><time>2026-04-05T10:36:59.9Z</time></trkpt><trkpt lat="45.7097459" lon="9.5340929"><ele>272.0</ele><time>2026-04-05T10:37:05.751Z</time></trkpt><trkpt lat="45.7098096" lon="9.5340825"><ele>272.71428571428567</ele><time>2026-04-05T10:37:10.653Z</time></trkpt><trkpt lat="45.7098785" lon="9.5340576"><ele>273.42857142857144</ele><time>2026-04-05T10:37:15.572Z</time></trkpt><trkpt lat="45.7099448" lon="9.5340517"><ele>274.1428571428571</ele><time>2026-04-05T10:37:21.481Z</time></trkpt><trkpt lat="45.7100087" lon="9.5340159"><ele>274.85714285714283</ele><time>2026-04-05T10:37:26.551Z</time></trkpt><trkpt lat="45.7100715" lon="9.5340241"><ele>275.57142857142856</ele><time>2026-04-05T10:37:32.412Z</time></trkpt><trkpt lat="45.7101416" lon="9.5340473"><ele>276.2857142857143</ele><time>2026-04-05T10:37:37.43Z</time></trkpt><trkpt lat="45.7102066" lon="9.5340378"><ele>277.0</ele><time>2026-04-05T10:37:42.477Z</time></trkpt><trkpt lat="45.7102687" lon="9.534089"><ele>277.0</ele><time>2026-04-05T10:37:51.315Z</time></trkpt><trkpt lat="45.7102843" lon="9.5341774"><ele>277.0</ele><time>2026-04-05T10:37:56.253Z</time></trkpt><trkpt lat="45.7102637" lon="9.53428"><ele>277.0</ele><time>2026-04-05T10:38:01.235Z</time></trkpt><trkpt lat="45.7102324" lon="9.5343754"><ele>277.0</ele><time>2026-04-05T10:38:06.133Z</time></trkpt><trkpt lat="45.7101991" lon="9.534468"><ele>277.0</ele><time>2026-04-05T10:38:10.111Z</time></trkpt><trkpt lat="45.7101547" lon="9.5345434"><ele>277.0</ele><time>2026-04-05T10:38:14.116Z</time></trkpt><trkpt lat="45.7101147" lon="9.534635"><ele>277.0</ele><time>2026-04-05T10:38:18.032Z</time></trkpt><trkpt lat="45.7100808" lon="9.5347146"><ele>277.57142857142856</ele><time>2026-04-05T10:38:22.955Z</time></trkpt><trkpt lat="45.7100525" lon="9.5347985"><ele>278.1428571428571</ele><time>2026-04-05T10:38:27.892Z</time></trkpt><trkpt lat="45.710005" lon="9.5348776"><ele>278.7142857142857</ele><time>2026-04-05T10:38:33.915Z</time></trkpt><trkpt lat="45.7099708" lon="9.534967"><ele>279.2857142857143</ele><time>2026-04-05T10:38:40.193Z</time></trkpt><trkpt lat="45.7100435" lon="9.5349786"><ele>279.8571428571429</ele><time>2026-04-05T10:38:56.516Z</time></trkpt><trkpt lat="45.7101133" lon="9.5349401"><ele>280.42857142857144</ele><time>2026-04-05T10:39:03.447Z</time></trkpt><trkpt lat="45.7101813" lon="9.5349223"><ele>281.0</ele><time>2026-04-05T10:39:10.48Z</time></trkpt><trkpt lat="45.7102495" lon="9.5348726"><ele>283.8571428571429</ele><time>2026-04-05T10:39:16.407Z</time></trkpt><trkpt lat="45.7103032" lon="9.534825"><ele>286.7142857142857</ele><time>2026-04-05T10:39:20.425Z</time></trkpt><trkpt lat="45.7103734" lon="9.5347966"><ele>289.57142857142856</ele><time>2026-04-05T10:39:25.449Z</time></trkpt><trkpt lat="45.710438" lon="9.5347693"><ele>292.42857142857144</ele><time>2026-04-05T10:39:30.471Z</time></trkpt><trkpt lat="45.7105048" lon="9.5347556"><ele>295.2857142857143</ele><time>2026-04-05T10:39:35.495Z</time></trkpt><trkpt lat="45.7105757" lon="9.5347333"><ele>298.14285714285717</ele><time>2026-04-05T10:39:41.421Z</time></trkpt><trkpt lat="45.7106462" lon="9.534707"><ele>301.0</ele><time>2026-04-05T10:39:47.433Z</time></trkpt><trkpt lat="45.7107116" lon="9.5347069"><ele>301.0</ele><time>2026-04-05T10:39:53.476Z</time></trkpt><trkpt lat="45.7107827" lon="9.5347234"><ele>301.0</ele><time>2026-04-05T10:39:59.404Z</time></trkpt><trkpt lat="45.7108617" lon="9.534708"><ele>301.0</ele><time>2026-04-05T10:40:04.427Z</time></trkpt><trkpt lat="45.7109317" lon="9.5347191"><ele>301.0</ele><time>2026-04-05T10:40:09.372Z</time></trkpt><trkpt lat="45.7109927" lon="9.5346912"><ele>301.0</ele><time>2026-04-05T10:40:14.213Z</time></trkpt><trkpt lat="45.7110651" lon="9.5346874"><ele>301.0</ele><time>2026-04-05T10:40:21.404Z</time></trkpt><trkpt lat="45.7111289" lon="9.5346871"><ele>301.0</ele><time>2026-04-05T10:40:26.427Z</time></trkpt><trkpt lat="45.7111913" lon="9.5346709"><ele>302.0</ele><time>2026-04-05T10:40:30.445Z</time></trkpt><trkpt lat="45.7112568" lon="9.5346847"><ele>303.0</ele><time>2026-04-05T10:40:35.133Z</time></trkpt><trkpt lat="45.7113217" lon="9.5347248"><ele>304.0</ele><time>2026-04-05T10:40:39.487Z</time></trkpt><trkpt lat="45.711392" lon="9.5347514"><ele>305.0</ele><time>2026-04-05T10:40:45.514Z</time></trkpt><trkpt lat="45.7114542" lon="9.5348078"><ele>306.0</ele><time>2026-04-05T10:40:51.441Z</time></trkpt><trkpt lat="45.7115057" lon="9.5348839"><ele>307.0</ele><time>2026-04-05T10:40:56.465Z</time></trkpt><trkpt lat="45.7115427" lon="9.5349742"><ele>308.0</ele><time>2026-04-05T10:41:01.488Z</time></trkpt><trkpt lat="45.7115591" lon="9.5350789"><ele>308.0</ele><time>2026-04-05T10:41:06.333Z</time></trkpt><trkpt lat="45.7116355" lon="9.5351148"><ele>308.0</ele><time>2026-04-05T10:41:11.433Z</time></trkpt><trkpt lat="45.7117035" lon="9.5351097"><ele>308.0</ele><time>2026-04-05T10:41:15.451Z</time></trkpt><trkpt lat="45.7117423" lon="9.5350255"><ele>308.0</ele><time>2026-04-05T10:41:23.487Z</time></trkpt><trkpt lat="45.711776" lon="9.5349489"><ele>308.0</ele><time>2026-04-05T10:41:29.414Z</time></trkpt><trkpt lat="45.7118157" lon="9.5348697"><ele>308.0</ele><time>2026-04-05T10:41:36.475Z</time></trkpt><trkpt lat="45.7118425" lon="9.5347851"><ele>308.0</ele><time>2026-04-05T10:41:43.412Z</time></trkpt><trkpt lat="45.7118733" lon="9.5346943"><ele>308.0</ele><time>2026-04-05T10:41:49.333Z</time></trkpt><trkpt lat="45.7118937" lon="9.5345967"><ele>308.0</ele><time>2026-04-05T10:41:55.276Z</time></trkpt><trkpt lat="45.711914" lon="9.5345083"><ele>308.0</ele><time>2026-04-05T10:41:59.213Z</time></trkpt><trkpt lat="45.7119229" lon="9.5344035"><ele>308.0</ele><time>2026-04-05T10:42:04.413Z</time></trkpt><trkpt lat="45.7119307" lon="9.5343091"><ele>308.0</ele><time>2026-04-05T10:42:10.502Z</time></trkpt><trkpt lat="45.7119371" lon="9.5342051"><ele>308.0</ele><time>2026-04-05T10:42:15.424Z</time></trkpt><trkpt lat="45.7119441" lon="9.5341073"><ele>308.0</ele><time>2026-04-05T10:42:20.447Z</time></trkpt><trkpt lat="45.7119744" lon="9.5340175"><ele>308.14285714285717</ele><time>2026-04-05T10:42:26.492Z</time></trkpt><trkpt lat="45.7120065" lon="9.5339271"><ele>308.2857142857143</ele><time>2026-04-05T10:42:33.475Z</time></trkpt><trkpt lat="45.71204" lon="9.533834"><ele>308.42857142857144</ele><time>2026-04-05T10:42:39.491Z</time></trkpt><trkpt lat="45.7120858" lon="9.5337656"><ele>308.57142857142856</ele><time>2026-04-05T10:42:43.495Z</time></trkpt><trkpt lat="45.7121394" lon="9.533707"><ele>308.7142857142857</ele><time>2026-04-05T10:42:47.472Z</time></trkpt><trkpt lat="45.7122027" lon="9.5336522"><ele>308.8571428571429</ele><time>2026-04-05T10:42:52.394Z</time></trkpt><trkpt lat="45.7122743" lon="9.5336311"><ele>309.0</ele><time>2026-04-05T10:42:56.513Z</time></trkpt><trkpt lat="45.7123337" lon="9.5336756"><ele>311.00000000000006</ele><time>2026-04-05T10:43:00.43Z</time></trkpt><trkpt lat="45.7123685" lon="9.5337508"><ele>313.0</ele><time>2026-04-05T10:43:04.449Z</time></trkpt><trkpt lat="45.7123841" lon="9.5338472"><ele>315.0</ele><time>2026-04-05T10:43:10.476Z</time></trkpt><trkpt lat="45.7123976" lon="9.5339467"><ele>317.0</ele><time>2026-04-05T10:43:19.417Z</time></trkpt><trkpt lat="45.712398" lon="9.5340429"><ele>319.0</ele><time>2026-04-05T10:43:24.441Z</time></trkpt><trkpt lat="45.7123876" lon="9.5341639"><ele>321.00000000000006</ele><time>2026-04-05T10:43:28.459Z</time></trkpt><trkpt lat="45.7123904" lon="9.5342802"><ele>323.0</ele><time>2026-04-05T10:43:32.476Z</time></trkpt><trkpt lat="45.7123947" lon="9.5343767"><ele>323.00000000000006</ele><time>2026-04-05T10:43:36.471Z</time></trkpt><trkpt lat="45.7123982" lon="9.534474"><ele>323.0</ele><time>2026-04-05T10:43:41.417Z</time></trkpt><trkpt lat="45.7124248" lon="9.5345583"><ele>323.0</ele><time>2026-04-05T10:43:48.45Z</time></trkpt><trkpt lat="45.7124443" lon="9.5346549"><ele>323.0</ele><time>2026-04-05T10:43:54.75Z</time></trkpt><trkpt lat="45.7124885" lon="9.5347367"><ele>323.0</ele><time>2026-04-05T10:44:00.071Z</time></trkpt><trkpt lat="45.712534" lon="9.5346668"><ele>323.00000000000006</ele><time>2026-04-05T10:44:06.494Z</time></trkpt><trkpt lat="45.7125032" lon="9.5345802"><ele>323.0</ele><time>2026-04-05T10:44:12.461Z</time></trkpt><trkpt lat="45.7125107" lon="9.5344673"><ele>323.00000000000006</ele><time>2026-04-05T10:44:18.488Z</time></trkpt><trkpt lat="45.7125478" lon="9.5343944"><ele>323.0</ele><time>2026-04-05T10:44:22.405Z</time></trkpt><trkpt lat="45.7125943" lon="9.5343233"><ele>323.0</ele><time>2026-04-05T10:44:26.424Z</time></trkpt><trkpt lat="45.7126558" lon="9.5342693"><ele>323.0</ele><time>2026-04-05T10:44:32.394Z</time></trkpt><trkpt lat="45.7127162" lon="9.5342152"><ele>323.0</ele><time>2026-04-05T10:44:37.475Z</time></trkpt><trkpt lat="45.7127663" lon="9.5341441"><ele>323.00000000000006</ele><time>2026-04-05T10:44:43.502Z</time></trkpt><trkpt lat="45.7128206" lon="9.5340933"><ele>323.0</ele><time>2026-04-05T10:44:51.373Z</time></trkpt><trkpt lat="45.7128838" lon="9.5340429"><ele>325.8571428571429</ele><time>2026-04-05T10:44:57.467Z</time></trkpt><trkpt lat="45.712953" lon="9.5339957"><ele>328.7142857142857</ele><time>2026-04-05T10:45:03.493Z</time></trkpt><trkpt lat="45.7130296" lon="9.533988"><ele>331.57142857142856</ele><time>2026-04-05T10:45:08.417Z</time></trkpt><trkpt lat="45.7130788" lon="9.5340554"><ele>334.42857142857144</ele><time>2026-04-05T10:45:13.35Z</time></trkpt><trkpt lat="45.7130585" lon="9.5341575"><ele>337.2857142857143</ele><time>2026-04-05T10:45:17.476Z</time></trkpt><trkpt lat="45.713046" lon="9.5342569"><ele>340.14285714285717</ele><time>2026-04-05T10:45:21.476Z</time></trkpt><trkpt lat="45.7130182" lon="9.5343496"><ele>343.0</ele><time>2026-04-05T10:45:26.472Z</time></trkpt><trkpt lat="45.7130717" lon="9.5343999"><ele>343.0</ele><time>2026-04-05T10:45:37.449Z</time></trkpt><trkpt lat="45.7131179" lon="9.534328"><ele>343.0</ele><time>2026-04-05T10:45:42.473Z</time></trkpt><trkpt lat="45.7131653" lon="9.5342625"><ele>343.0</ele><time>2026-04-05T10:45:47.495Z</time></trkpt><trkpt lat="45.7132287" lon="9.5342742"><ele>343.0</ele><time>2026-04-05T10:45:53.423Z</time></trkpt><trkpt lat="45.7132557" lon="9.5343739"><ele>343.0</ele><time>2026-04-05T10:45:57.441Z</time></trkpt><trkpt lat="45.7132842" lon="9.5344578"><ele>343.0</ele><time>2026-04-05T10:46:00.455Z</time></trkpt><trkpt lat="45.7133502" lon="9.5344948"><ele>343.0</ele><time>2026-04-05T10:46:04.376Z</time></trkpt><trkpt lat="45.713415" lon="9.5344307"><ele>343.0</ele><time>2026-04-05T10:46:08.474Z</time></trkpt><trkpt lat="45.7134296" lon="9.5343301"><ele>343.0</ele><time>2026-04-05T10:46:12.412Z</time></trkpt><trkpt lat="45.7134625" lon="9.5342441"><ele>343.0</ele><time>2026-04-05T10:46:18.436Z</time></trkpt><trkpt lat="45.7135209" lon="9.534173"><ele>343.0</ele><time>2026-04-05T10:46:23.459Z</time></trkpt><trkpt lat="45.7135893" lon="9.5341872"><ele>343.0</ele><time>2026-04-05T10:46:29.487Z</time></trkpt><trkpt lat="45.7136456" lon="9.5341343"><ele>343.0</ele><time>2026-04-05T10:46:39.752Z</time></trkpt><trkpt lat="45.7137068" lon="9.5341027"><ele>343.0</ele><time>2026-04-05T10:46:43.451Z</time></trkpt><trkpt lat="45.7137882" lon="9.534111"><ele>344.7142857142857</ele><time>2026-04-05T10:46:47.469Z</time></trkpt><trkpt lat="45.7138494" lon="9.5341371"><ele>346.42857142857144</ele><time>2026-04-05T10:46:56.411Z</time></trkpt><trkpt lat="45.7139205" lon="9.534076"><ele>348.1428571428571</ele><time>2026-04-05T10:47:01.434Z</time></trkpt><trkpt lat="45.7139786" lon="9.5340345"><ele>349.8571428571429</ele><time>2026-04-05T10:47:05.395Z</time></trkpt><trkpt lat="45.7140411" lon="9.5339881"><ele>351.57142857142856</ele><time>2026-04-05T10:47:09.471Z</time></trkpt><trkpt lat="45.7141124" lon="9.5339625"><ele>353.2857142857143</ele><time>2026-04-05T10:47:13.493Z</time></trkpt><trkpt lat="45.7141761" lon="9.5339642"><ele>355.0</ele><time>2026-04-05T10:47:18.411Z</time></trkpt><trkpt lat="45.7142197" lon="9.534039"><ele>355.0</ele><time>2026-04-05T10:47:24.438Z</time></trkpt><trkpt lat="45.7142823" lon="9.5340794"><ele>355.0</ele><time>2026-04-05T10:47:33.479Z</time></trkpt><trkpt lat="45.7143435" lon="9.5341362"><ele>355.0</ele><time>2026-04-05T10:47:39.507Z</time></trkpt><trkpt lat="45.7143966" lon="9.5341976"><ele>355.0</ele><time>2026-04-05T10:47:45.331Z</time></trkpt><trkpt lat="45.7144718" lon="9.5342236"><ele>355.0</ele><time>2026-04-05T10:47:50.476Z</time></trkpt><trkpt lat="45.7145569" lon="9.534218"><ele>355.0</ele><time>2026-04-05T10:47:54.494Z</time></trkpt><trkpt lat="45.7146279" lon="9.5341743"><ele>356.85714285714283</ele><time>2026-04-05T10:47:58.494Z</time></trkpt><trkpt lat="45.7146777" lon="9.534105"><ele>358.7142857142857</ele><time>2026-04-05T10:48:05.426Z</time></trkpt><trkpt lat="45.7147192" lon="9.5341876"><ele>360.57142857142856</ele><time>2026-04-05T10:48:13.462Z</time></trkpt><trkpt lat="45.7147106" lon="9.5342917"><ele>362.42857142857144</ele><time>2026-04-05T10:48:19.49Z</time></trkpt><trkpt lat="45.7146725" lon="9.5343863"><ele>364.2857142857143</ele><time>2026-04-05T10:48:24.412Z</time></trkpt><trkpt lat="45.7146352" lon="9.5344648"><ele>366.14285714285717</ele><time>2026-04-05T10:48:30.44Z</time></trkpt><trkpt lat="45.714693" lon="9.5344159"><ele>368.0</ele><time>2026-04-05T10:48:48.69Z</time></trkpt><trkpt lat="45.7147647" lon="9.5343904"><ele>368.0</ele><time>2026-04-05T10:48:53.854Z</time></trkpt><trkpt lat="45.7148384" lon="9.534401"><ele>368.0</ele><time>2026-04-05T10:48:58.074Z</time></trkpt><trkpt lat="45.7149065" lon="9.5344548"><ele>368.0</ele><time>2026-04-05T10:49:02.253Z</time></trkpt><trkpt lat="45.7149553" lon="9.5345242"><ele>368.0</ele><time>2026-04-05T10:49:08.515Z</time></trkpt><trkpt lat="45.7150148" lon="9.5345807"><ele>368.0</ele><time>2026-04-05T10:49:14.441Z</time></trkpt><trkpt lat="45.7150865" lon="9.5345886"><ele>368.0</ele><time>2026-04-05T10:49:18.459Z</time></trkpt><trkpt lat="45.7151602" lon="9.5345779"><ele>368.0</ele><time>2026-04-05T10:49:23.394Z</time></trkpt><trkpt lat="45.7152227" lon="9.5345329"><ele>369.7142857142857</ele><time>2026-04-05T10:49:28.477Z</time></trkpt><trkpt lat="45.7152615" lon="9.5344584"><ele>371.4285714285714</ele><time>2026-04-05T10:49:32.414Z</time></trkpt><trkpt lat="45.7153125" lon="9.5343969"><ele>373.1428571428571</ele><time>2026-04-05T10:49:38.293Z</time></trkpt><trkpt lat="45.7153749" lon="9.5343699"><ele>374.8571428571429</ele><time>2026-04-05T10:49:44.478Z</time></trkpt><trkpt lat="45.7154382" lon="9.5343429"><ele>376.57142857142856</ele><time>2026-04-05T10:49:50.406Z</time></trkpt><trkpt lat="45.7155167" lon="9.5343249"><ele>378.2857142857143</ele><time>2026-04-05T10:49:56.432Z</time></trkpt><trkpt lat="45.7155977" lon="9.5343105"><ele>380.0</ele><time>2026-04-05T10:50:01.453Z</time></trkpt><trkpt lat="45.7156657" lon="9.5342825"><ele>380.0</ele><time>2026-04-05T10:50:05.474Z</time></trkpt><trkpt lat="45.715728" lon="9.53426"><ele>380.0</ele><time>2026-04-05T10:50:10.396Z</time></trkpt><trkpt lat="45.7157831" lon="9.5341913"><ele>380.0</ele><time>2026-04-05T10:50:21.446Z</time></trkpt><trkpt lat="45.7158458" lon="9.5341658"><ele>380.0</ele><time>2026-04-05T10:50:25.466Z</time></trkpt><trkpt lat="45.715915" lon="9.534148"><ele>380.0</ele><time>2026-04-05T10:50:36.415Z</time></trkpt><trkpt lat="45.7159861" lon="9.5341252"><ele>380.0</ele><time>2026-04-05T10:50:42.314Z</time></trkpt><trkpt lat="45.7160557" lon="9.5340906"><ele>380.0</ele><time>2026-04-05T10:50:46.412Z</time></trkpt><trkpt lat="45.7161345" lon="9.5340817"><ele>380.8571428571429</ele><time>2026-04-05T10:50:50.479Z</time></trkpt><trkpt lat="45.716201" lon="9.5340834"><ele>381.7142857142857</ele><time>2026-04-05T10:50:56.454Z</time></trkpt><trkpt lat="45.7162657" lon="9.534065"><ele>382.57142857142856</ele><time>2026-04-05T10:51:04.275Z</time></trkpt><trkpt lat="45.7163347" lon="9.5340264"><ele>383.42857142857144</ele><time>2026-04-05T10:51:08.453Z</time></trkpt><trkpt lat="45.7163943" lon="9.5339744"><ele>384.2857142857143</ele><time>2026-04-05T10:51:12.479Z</time></trkpt><trkpt lat="45.7164311" lon="9.533899"><ele>385.14285714285717</ele><time>2026-04-05T10:51:22.424Z</time></trkpt><trkpt lat="45.716483" lon="9.5338309"><ele>386.0</ele><time>2026-04-05T10:51:27.448Z</time></trkpt><trkpt lat="45.7165215" lon="9.533752"><ele>386.7142857142857</ele><time>2026-04-05T10:51:33.475Z</time></trkpt><trkpt lat="45.7165576" lon="9.5336739"><ele>387.42857142857144</ele><time>2026-04-05T10:51:41.412Z</time></trkpt><trkpt lat="45.7165861" lon="9.5335826"><ele>388.1428571428571</ele><time>2026-04-05T10:51:46.412Z</time></trkpt><trkpt lat="45.716604" lon="9.5334931"><ele>388.8571428571429</ele><time>2026-04-05T10:51:50.452Z</time></trkpt><trkpt lat="45.7166438" lon="9.533411"><ele>389.57142857142856</ele><time>2026-04-05T10:51:57.453Z</time></trkpt><trkpt lat="45.7166552" lon="9.5333136"><ele>390.2857142857143</ele><time>2026-04-05T10:52:03.412Z</time></trkpt><trkpt lat="45.7166734" lon="9.5332042"><ele>391.0</ele><time>2026-04-05T10:52:08.435Z</time></trkpt><trkpt lat="45.7166923" lon="9.5331165"><ele>390.99999999999994</ele><time>2026-04-05T10:52:14.462Z</time></trkpt><trkpt lat="45.7167191" lon="9.5330176"><ele>391.0</ele><time>2026-04-05T10:52:22.499Z</time></trkpt><trkpt lat="45.7167339" lon="9.5329201"><ele>391.0</ele><time>2026-04-05T10:52:26.417Z</time></trkpt><trkpt lat="45.7167563" lon="9.532827"><ele>391.0</ele><time>2026-04-05T10:52:30.436Z</time></trkpt><trkpt lat="45.7167927" lon="9.5327378"><ele>391.0</ele><time>2026-04-05T10:52:34.453Z</time></trkpt><trkpt lat="45.7168285" lon="9.5326548"><ele>390.99999999999994</ele><time>2026-04-05T10:52:38.471Z</time></trkpt><trkpt lat="45.7168231" lon="9.5325622"><ele>391.0</ele><time>2026-04-05T10:52:43.491Z</time></trkpt><trkpt lat="45.7168153" lon="9.5324715"><ele>392.1428571428571</ele><time>2026-04-05T10:52:48.418Z</time></trkpt><trkpt lat="45.7168375" lon="9.532372"><ele>393.2857142857143</ele><time>2026-04-05T10:52:54.444Z</time></trkpt><trkpt lat="45.7168631" lon="9.5322854"><ele>394.42857142857144</ele><time>2026-04-05T10:53:01.474Z</time></trkpt><trkpt lat="45.7168596" lon="9.5321795"><ele>395.57142857142856</ele><time>2026-04-05T10:53:09.412Z</time></trkpt><trkpt lat="45.7168624" lon="9.5320754"><ele>396.7142857142857</ele><time>2026-04-05T10:53:13.431Z</time></trkpt><trkpt lat="45.7168813" lon="9.5319596"><ele>397.85714285714283</ele><time>2026-04-05T10:53:17.449Z</time></trkpt><trkpt lat="45.7168845" lon="9.5318643"><ele>399.0</ele><time>2026-04-05T10:53:21.438Z</time></trkpt><trkpt lat="45.7168804" lon="9.5317573"><ele>399.57142857142856</ele><time>2026-04-05T10:53:26.49Z</time></trkpt><trkpt lat="45.7168838" lon="9.5316587"><ele>400.1428571428571</ele><time>2026-04-05T10:53:31.413Z</time></trkpt><trkpt lat="45.716905" lon="9.5315737"><ele>400.7142857142857</ele><time>2026-04-05T10:53:38.332Z</time></trkpt><trkpt lat="45.7169513" lon="9.5314913"><ele>401.2857142857143</ele><time>2026-04-05T10:53:45.193Z</time></trkpt><trkpt lat="45.7170008" lon="9.5314077"><ele>401.85714285714283</ele><time>2026-04-05T10:53:50.075Z</time></trkpt><trkpt lat="45.7170208" lon="9.5313157"><ele>402.42857142857144</ele><time>2026-04-05T10:53:53.952Z</time></trkpt><trkpt lat="45.7170361" lon="9.5312256"><ele>403.0</ele><time>2026-04-05T10:53:58.855Z</time></trkpt><trkpt lat="45.7170579" lon="9.531133"><ele>403.0</ele><time>2026-04-05T10:54:04.712Z</time></trkpt><trkpt lat="45.717075" lon="9.5310416"><ele>403.0</ele><time>2026-04-05T10:54:10.491Z</time></trkpt><trkpt lat="45.7170887" lon="9.5309517"><ele>403.0</ele><time>2026-04-05T10:54:16.375Z</time></trkpt><trkpt lat="45.7171199" lon="9.5308644"><ele>403.0</ele><time>2026-04-05T10:54:22.191Z</time></trkpt><trkpt lat="45.717153" lon="9.5307693"><ele>403.0</ele><time>2026-04-05T10:54:27.014Z</time></trkpt><trkpt lat="45.7171835" lon="9.5306687"><ele>403.0</ele><time>2026-04-05T10:54:30.901Z</time></trkpt><trkpt lat="45.7172094" lon="9.5305831"><ele>403.0</ele><time>2026-04-05T10:54:35.735Z</time></trkpt><trkpt lat="45.7172109" lon="9.5304877"><ele>403.0</ele><time>2026-04-05T10:54:42.636Z</time></trkpt><trkpt lat="45.7172671" lon="9.5304327"><ele>403.0</ele><time>2026-04-05T10:54:46.818Z</time></trkpt><trkpt lat="45.7173289" lon="9.5303924"><ele>403.0</ele><time>2026-04-05T10:54:57.372Z</time></trkpt><trkpt lat="45.7173858" lon="9.5303393"><ele>403.0</ele><time>2026-04-05T10:55:05.441Z</time></trkpt><trkpt lat="45.7174534" lon="9.5302907"><ele>403.0</ele><time>2026-04-05T10:55:12.473Z</time></trkpt><trkpt lat="45.7175126" lon="9.5302528"><ele>403.0</ele><time>2026-04-05T10:55:17.396Z</time></trkpt><trkpt lat="45.7175836" lon="9.5302109"><ele>403.0</ele><time>2026-04-05T10:55:22.419Z</time></trkpt><trkpt lat="45.7176494" lon="9.5301729"><ele>404.1666666666667</ele><time>2026-04-05T10:55:27.441Z</time></trkpt><trkpt lat="45.7177194" lon="9.5301443"><ele>405.33333333333337</ele><time>2026-04-05T10:55:33.47Z</time></trkpt><trkpt lat="45.7177899" lon="9.5301281"><ele>406.5</ele><time>2026-04-05T10:55:40.311Z</time></trkpt><trkpt lat="45.7178551" lon="9.5301681"><ele>407.66666666666663</ele><time>2026-04-05T10:55:42.853Z</time></trkpt><trkpt lat="45.7179281" lon="9.5302276"><ele>408.8333333333333</ele><time>2026-04-05T10:55:45.349Z</time></trkpt><trkpt lat="45.7180042" lon="9.5302826"><ele>410.0</ele><time>2026-04-05T10:55:47.378Z</time></trkpt><trkpt lat="45.7180181" lon="9.5301369"><ele>407.42857142857144</ele><time>2026-04-05T10:55:51.333Z</time></trkpt><trkpt lat="45.7180178" lon="9.5300378"><ele>404.85714285714283</ele><time>2026-04-05T10:55:53.391Z</time></trkpt><trkpt lat="45.7180374" lon="9.5299498"><ele>402.2857142857143</ele><time>2026-04-05T10:55:58.394Z</time></trkpt><trkpt lat="45.7180975" lon="9.529902"><ele>399.7142857142857</ele><time>2026-04-05T10:56:04.392Z</time></trkpt><trkpt lat="45.7181674" lon="9.5298722"><ele>397.1428571428571</ele><time>2026-04-05T10:56:09.391Z</time></trkpt><trkpt lat="45.7182338" lon="9.5298421"><ele>394.57142857142856</ele><time>2026-04-05T10:56:15.391Z</time></trkpt><trkpt lat="45.718301" lon="9.5298491"><ele>392.0</ele><time>2026-04-05T10:56:21.493Z</time></trkpt><trkpt lat="45.7183792" lon="9.5298359"><ele>392.0</ele><time>2026-04-05T10:56:26.414Z</time></trkpt><trkpt lat="45.7184457" lon="9.5297983"><ele>392.0</ele><time>2026-04-05T10:56:30.43Z</time></trkpt><trkpt lat="45.718509" lon="9.5296976"><ele>392.0</ele><time>2026-04-05T10:56:51.426Z</time></trkpt><trkpt lat="45.7185119" lon="9.5296006"><ele>392.0</ele><time>2026-04-05T10:56:57.454Z</time></trkpt><trkpt lat="45.7184971" lon="9.5295086"><ele>392.0</ele><time>2026-04-05T10:57:06.453Z</time></trkpt><trkpt lat="45.7184759" lon="9.5294215"><ele>392.0</ele><time>2026-04-05T10:57:14.432Z</time></trkpt><trkpt lat="45.718445" lon="9.5293399"><ele>392.0</ele><time>2026-04-05T10:57:23.473Z</time></trkpt><trkpt lat="45.7183932" lon="9.5292713"><ele>392.85714285714283</ele><time>2026-04-05T10:57:30.393Z</time></trkpt><trkpt lat="45.7183547" lon="9.5291928"><ele>393.7142857142857</ele><time>2026-04-05T10:57:35.496Z</time></trkpt><trkpt lat="45.7183336" lon="9.5290978"><ele>394.57142857142856</ele><time>2026-04-05T10:57:41.455Z</time></trkpt><trkpt lat="45.7182833" lon="9.5290366"><ele>395.42857142857144</ele><time>2026-04-05T10:57:48.487Z</time></trkpt><trkpt lat="45.7182568" lon="9.5289459"><ele>396.2857142857143</ele><time>2026-04-05T10:57:55.419Z</time></trkpt><trkpt lat="45.7182108" lon="9.52886"><ele>397.1428571428571</ele><time>2026-04-05T10:58:03.355Z</time></trkpt><trkpt lat="45.7181496" lon="9.5288236"><ele>398.0</ele><time>2026-04-05T10:58:06.469Z</time></trkpt><trkpt lat="45.7181006" lon="9.5287618"><ele>397.99999999999994</ele><time>2026-04-05T10:58:09.483Z</time></trkpt><trkpt lat="45.7180486" lon="9.5286928"><ele>398.0</ele><time>2026-04-05T10:58:12.497Z</time></trkpt><trkpt lat="45.7179925" lon="9.5286138"><ele>398.0</ele><time>2026-04-05T10:58:16.415Z</time></trkpt><trkpt lat="45.7179799" lon="9.5285076"><ele>398.0</ele><time>2026-04-05T10:58:22.355Z</time></trkpt><trkpt lat="45.7180365" lon="9.5284375"><ele>398.0</ele><time>2026-04-05T10:58:27.465Z</time></trkpt><trkpt lat="45.7180919" lon="9.5283725"><ele>397.99999999999994</ele><time>2026-04-05T10:58:34.194Z</time></trkpt><trkpt lat="45.7181608" lon="9.5283339"><ele>398.0</ele><time>2026-04-05T10:58:39.212Z</time></trkpt><trkpt lat="45.718221" lon="9.5283074"><ele>397.99999999999994</ele><time>2026-04-05T10:58:42.216Z</time></trkpt><trkpt lat="45.7182938" lon="9.5282966"><ele>398.0</ele><time>2026-04-05T10:58:47.313Z</time></trkpt><trkpt lat="45.7183561" lon="9.5283128"><ele>398.0</ele><time>2026-04-05T10:58:52.331Z</time></trkpt><trkpt lat="45.7184216" lon="9.5282929"><ele>398.0</ele><time>2026-04-05T10:58:57.254Z</time></trkpt><trkpt lat="45.7184853" lon="9.5282899"><ele>398.0</ele><time>2026-04-05T10:59:02.314Z</time></trkpt><trkpt lat="45.7185626" lon="9.5282852"><ele>397.99999999999994</ele><time>2026-04-05T10:59:08.375Z</time></trkpt><trkpt lat="45.7186285" lon="9.5282675"><ele>398.0</ele><time>2026-04-05T10:59:13.413Z</time></trkpt><trkpt lat="45.7186915" lon="9.5282578"><ele>393.99999999999994</ele><time>2026-04-05T10:59:19.415Z</time></trkpt><trkpt lat="45.7187669" lon="9.528236"><ele>390.0</ele><time>2026-04-05T10:59:30.455Z</time></trkpt><trkpt lat="45.7188455" lon="9.5282332"><ele>386.0</ele><time>2026-04-05T10:59:35.477Z</time></trkpt><trkpt lat="45.7189184" lon="9.5282319"><ele>382.0</ele><time>2026-04-05T10:59:40.511Z</time></trkpt><trkpt lat="45.7189804" lon="9.5282514"><ele>378.0</ele><time>2026-04-05T10:59:48.493Z</time></trkpt><trkpt lat="45.7191041" lon="9.5282477"><ele>374.0</ele><time>2026-04-05T10:59:56.471Z</time></trkpt><trkpt lat="45.719178" lon="9.52825"><ele>374.0</ele><time>2026-04-05T11:00:00.49Z</time></trkpt><trkpt lat="45.719238" lon="9.5281808"><ele>374.0</ele><time>2026-04-05T11:00:04.408Z</time></trkpt><trkpt lat="45.7192473" lon="9.5280816"><ele>374.0</ele><time>2026-04-05T11:00:08.494Z</time></trkpt><trkpt lat="45.7192587" lon="9.527988"><ele>374.0</ele><time>2026-04-05T11:00:15.459Z</time></trkpt><trkpt lat="45.7193067" lon="9.5279041"><ele>374.0</ele><time>2026-04-05T11:00:23.494Z</time></trkpt><trkpt lat="45.7192989" lon="9.5278031"><ele>374.0</ele><time>2026-04-05T11:00:29.422Z</time></trkpt><trkpt lat="45.7192651" lon="9.5277135"><ele>374.0</ele><time>2026-04-05T11:00:35.449Z</time></trkpt><trkpt lat="45.7192762" lon="9.5276233"><ele>373.7142857142857</ele><time>2026-04-05T11:00:45.495Z</time></trkpt><trkpt lat="45.7193267" lon="9.527555"><ele>373.42857142857144</ele><time>2026-04-05T11:00:54.332Z</time></trkpt><trkpt lat="45.7193821" lon="9.5274887"><ele>373.14285714285717</ele><time>2026-04-05T11:00:58.394Z</time></trkpt><trkpt lat="45.7194405" lon="9.5274297"><ele>372.8571428571429</ele><time>2026-04-05T11:01:03.454Z</time></trkpt><trkpt lat="45.7195065" lon="9.5274205"><ele>372.57142857142856</ele><time>2026-04-05T11:01:09.582Z</time></trkpt><trkpt lat="45.7195789" lon="9.5274631"><ele>372.28571428571433</ele><time>2026-04-05T11:01:13.422Z</time></trkpt><trkpt lat="45.7196471" lon="9.5274427"><ele>372.0</ele><time>2026-04-05T11:01:17.441Z</time></trkpt><trkpt lat="45.7198198" lon="9.5274176"><ele>372.0</ele><time>2026-04-05T11:01:20.454Z</time></trkpt><trkpt lat="45.7197571" lon="9.5273297"><ele>372.0</ele><time>2026-04-05T11:01:25.454Z</time></trkpt><trkpt lat="45.7198502" lon="9.5274173"><ele>372.0</ele><time>2026-04-05T11:01:46.473Z</time></trkpt><trkpt lat="45.7199309" lon="9.5274461"><ele>372.0</ele><time>2026-04-05T11:01:55.415Z</time></trkpt><trkpt lat="45.7200054" lon="9.5275409"><ele>372.0</ele><time>2026-04-05T11:01:56.332Z</time></trkpt><trkpt lat="45.7200615" lon="9.5275959"><ele>372.0</ele><time>2026-04-05T11:01:59.495Z</time></trkpt><trkpt lat="45.7201994" lon="9.5277224"><ele>372.0</ele><time>2026-04-05T11:02:18.42Z</time></trkpt><trkpt lat="45.720326" lon="9.5277983"><ele>372.0</ele><time>2026-04-05T11:02:26.456Z</time></trkpt><trkpt lat="45.7204069" lon="9.5278042"><ele>372.0</ele><time>2026-04-05T11:02:30.391Z</time></trkpt><trkpt lat="45.7205073" lon="9.5279029"><ele>371.0</ele><time>2026-04-05T11:02:48.456Z</time></trkpt><trkpt lat="45.7205545" lon="9.527963"><ele>370.0</ele><time>2026-04-05T11:02:50.466Z</time></trkpt><trkpt lat="45.7206982" lon="9.5280801"><ele>369.0</ele><time>2026-04-05T11:03:05.434Z</time></trkpt><trkpt lat="45.7208188" lon="9.5281747"><ele>368.0</ele><time>2026-04-05T11:03:11.46Z</time></trkpt><trkpt lat="45.7208745" lon="9.5282413"><ele>367.0</ele><time>2026-04-05T11:03:17.488Z</time></trkpt><trkpt lat="45.7209869" lon="9.5283334"><ele>367.8</ele><time>2026-04-05T11:03:35.469Z</time></trkpt><trkpt lat="45.7211536" lon="9.5282885"><ele>368.6</ele><time>2026-04-05T11:03:49.433Z</time></trkpt><trkpt lat="45.7212227" lon="9.528242"><ele>369.40000000000003</ele><time>2026-04-05T11:03:52.233Z</time></trkpt><trkpt lat="45.7212922" lon="9.5282282"><ele>370.20000000000005</ele><time>2026-04-05T11:03:56.465Z</time></trkpt><trkpt lat="45.7213572" lon="9.5281478"><ele>371.0</ele><time>2026-04-05T11:04:00.483Z</time></trkpt><trkpt lat="45.7213937" lon="9.5280666"><ele>371.0</ele><time>2026-04-05T11:04:03.475Z</time></trkpt><trkpt lat="45.7214398" lon="9.5279976"><ele>371.0</ele><time>2026-04-05T11:04:07.414Z</time></trkpt><trkpt lat="45.7215182" lon="9.5278924"><ele>371.0</ele><time>2026-04-05T11:04:37.451Z</time></trkpt><trkpt lat="45.7215832" lon="9.5278742"><ele>371.0</ele><time>2026-04-05T11:04:41.469Z</time></trkpt><trkpt lat="45.7216689" lon="9.527892"><ele>371.0</ele><time>2026-04-05T11:04:47.496Z</time></trkpt><trkpt lat="45.7217406" lon="9.5279439"><ele>371.0</ele><time>2026-04-05T11:04:53.275Z</time></trkpt><trkpt lat="45.7217985" lon="9.5280156"><ele>371.0</ele><time>2026-04-05T11:04:58.232Z</time></trkpt><trkpt lat="45.7218506" lon="9.5280824"><ele>371.0</ele><time>2026-04-05T11:05:07.488Z</time></trkpt><trkpt lat="45.7219279" lon="9.5281388"><ele>371.0</ele><time>2026-04-05T11:05:22.131Z</time></trkpt><trkpt lat="45.7220987" lon="9.528264"><ele>371.0</ele><time>2026-04-05T11:06:21.495Z</time></trkpt><trkpt lat="45.7221553" lon="9.5283064"><ele>371.0</ele><time>2026-04-05T11:06:29.459Z</time></trkpt><trkpt lat="45.7222204" lon="9.5283051"><ele>368.5</ele><time>2026-04-05T11:06:34.482Z</time></trkpt><trkpt lat="45.722284" lon="9.5283203"><ele>366.0</ele><time>2026-04-05T11:06:40.508Z</time></trkpt><trkpt lat="45.7223529" lon="9.528306"><ele>363.5</ele><time>2026-04-05T11:06:44.426Z</time></trkpt><trkpt lat="45.7224256" lon="9.528277"><ele>361.0</ele><time>2026-04-05T11:06:48.445Z</time></trkpt><trkpt lat="45.7224898" lon="9.5282465"><ele>358.5</ele><time>2026-04-05T11:06:53.468Z</time></trkpt><trkpt lat="45.7225834" lon="9.5281625"><ele>356.0</ele><time>2026-04-05T11:07:07.573Z</time></trkpt><trkpt lat="45.7226351" lon="9.5280972"><ele>351.75</ele><time>2026-04-05T11:07:12.591Z</time></trkpt><trkpt lat="45.7227445" lon="9.5280603"><ele>347.5</ele><time>2026-04-05T11:07:25.412Z</time></trkpt><trkpt lat="45.7228622" lon="9.5279958"><ele>343.25</ele><time>2026-04-05T11:07:36.454Z</time></trkpt><trkpt lat="45.7229568" lon="9.5278943"><ele>339.0</ele><time>2026-04-05T11:07:50.312Z</time></trkpt><trkpt lat="45.7230736" lon="9.5277601"><ele>339.0</ele><time>2026-04-05T11:07:56.214Z</time></trkpt><trkpt lat="45.7231423" lon="9.5277106"><ele>339.0</ele><time>2026-04-05T11:07:58.173Z</time></trkpt><trkpt lat="45.7231974" lon="9.5276534"><ele>339.0</ele><time>2026-04-05T11:08:01.211Z</time></trkpt><trkpt lat="45.7232426" lon="9.5275823"><ele>339.0</ele><time>2026-04-05T11:08:07.152Z</time></trkpt><trkpt lat="45.7232955" lon="9.527507"><ele>339.0</ele><time>2026-04-05T11:08:12.096Z</time></trkpt><trkpt lat="45.7233466" lon="9.5274447"><ele>339.0</ele><time>2026-04-05T11:08:16.113Z</time></trkpt><trkpt lat="45.7233913" lon="9.5273781"><ele>339.0</ele><time>2026-04-05T11:08:21.093Z</time></trkpt><trkpt lat="45.7234542" lon="9.5273535"><ele>339.0</ele><time>2026-04-05T11:08:25.095Z</time></trkpt><trkpt lat="45.7235249" lon="9.5273228"><ele>339.0</ele><time>2026-04-05T11:08:30.091Z</time></trkpt><trkpt lat="45.7235861" lon="9.527269"><ele>339.0</ele><time>2026-04-05T11:08:35.973Z</time></trkpt><trkpt lat="45.7237079" lon="9.527119"><ele>339.0</ele><time>2026-04-05T11:08:56.055Z</time></trkpt><trkpt lat="45.7237658" lon="9.5270732"><ele>339.0</ele><time>2026-04-05T11:08:59.474Z</time></trkpt><trkpt lat="45.7238441" lon="9.5270101"><ele>335.8333333333333</ele><time>2026-04-05T11:09:13.172Z</time></trkpt><trkpt lat="45.72392" lon="9.5269814"><ele>332.6666666666667</ele><time>2026-04-05T11:09:15.091Z</time></trkpt><trkpt lat="45.7240067" lon="9.5269657"><ele>329.5</ele><time>2026-04-05T11:09:18.095Z</time></trkpt><trkpt lat="45.7240797" lon="9.5269443"><ele>326.33333333333337</ele><time>2026-04-05T11:09:21.073Z</time></trkpt><trkpt lat="45.7241537" lon="9.5269448"><ele>323.1666666666667</ele><time>2026-04-05T11:09:26.016Z</time></trkpt><trkpt lat="45.7242232" lon="9.5269361"><ele>320.0</ele><time>2026-04-05T11:09:32.971Z</time></trkpt><trkpt lat="45.7242977" lon="9.5269073"><ele>320.0</ele><time>2026-04-05T11:09:38.934Z</time></trkpt><trkpt lat="45.724363" lon="9.526874"><ele>320.0</ele><time>2026-04-05T11:09:44.971Z</time></trkpt><trkpt lat="45.7244222" lon="9.5268293"><ele>320.0</ele><time>2026-04-05T11:09:50.014Z</time></trkpt><trkpt lat="45.7244856" lon="9.5268213"><ele>320.0</ele><time>2026-04-05T11:09:54.97Z</time></trkpt><trkpt lat="45.7245523" lon="9.5267971"><ele>320.0</ele><time>2026-04-05T11:09:59.973Z</time></trkpt><trkpt lat="45.7246158" lon="9.526773"><ele>320.0</ele><time>2026-04-05T11:10:05.93Z</time></trkpt><trkpt lat="45.7246839" lon="9.5267438"><ele>320.0</ele><time>2026-04-05T11:10:13.972Z</time></trkpt><trkpt lat="45.7247434" lon="9.526684"><ele>318.1428571428571</ele><time>2026-04-05T11:10:18.131Z</time></trkpt><trkpt lat="45.7247909" lon="9.5266054"><ele>316.2857142857143</ele><time>2026-04-05T11:10:25.031Z</time></trkpt><trkpt lat="45.7248207" lon="9.5265237"><ele>314.42857142857144</ele><time>2026-04-05T11:10:28.914Z</time></trkpt><trkpt lat="45.724905" lon="9.5264968"><ele>312.57142857142856</ele><time>2026-04-05T11:10:48.713Z</time></trkpt><trkpt lat="45.7249678" lon="9.5264658"><ele>310.7142857142857</ele><time>2026-04-05T11:10:50.714Z</time></trkpt><trkpt lat="45.7250425" lon="9.5264694"><ele>308.85714285714283</ele><time>2026-04-05T11:10:54.692Z</time></trkpt><trkpt lat="45.7251072" lon="9.5264944"><ele>307.0</ele><time>2026-04-05T11:10:58.735Z</time></trkpt><trkpt lat="45.7251572" lon="9.5265709"><ele>307.0</ele><time>2026-04-05T11:11:03.772Z</time></trkpt><trkpt lat="45.7251563" lon="9.5266799"><ele>307.0</ele><time>2026-04-05T11:11:09.895Z</time></trkpt><trkpt lat="45.7251306" lon="9.5267686"><ele>307.0</ele><time>2026-04-05T11:12:07.488Z</time></trkpt><trkpt lat="45.7251049" lon="9.5268833"><ele>307.0</ele><time>2026-04-05T11:12:12.517Z</time></trkpt><trkpt lat="45.7250653" lon="9.5269819"><ele>307.0</ele><time>2026-04-05T11:12:14.452Z</time></trkpt><trkpt lat="45.7250295" lon="9.5270588"><ele>307.0</ele><time>2026-04-05T11:12:18.377Z</time></trkpt><trkpt lat="45.7249617" lon="9.5271635"><ele>305.66666666666663</ele><time>2026-04-05T11:12:36.793Z</time></trkpt><trkpt lat="45.7249147" lon="9.5272635"><ele>304.3333333333333</ele><time>2026-04-05T11:12:48.115Z</time></trkpt><trkpt lat="45.724873" lon="9.5273361"><ele>303.0</ele><time>2026-04-05T11:12:51.012Z</time></trkpt><trkpt lat="45.7248197" lon="9.5274035"><ele>301.6666666666667</ele><time>2026-04-05T11:12:53.991Z</time></trkpt><trkpt lat="45.72476" lon="9.5274391"><ele>300.33333333333337</ele><time>2026-04-05T11:12:55.954Z</time></trkpt><trkpt lat="45.7247173" lon="9.5275224"><ele>299.0</ele><time>2026-04-05T11:12:58.897Z</time></trkpt><trkpt lat="45.7246626" lon="9.5276297"><ele>299.0</ele><time>2026-04-05T11:13:08.732Z</time></trkpt><trkpt lat="45.7246006" lon="9.5277603"><ele>299.0</ele><time>2026-04-05T11:13:19.635Z</time></trkpt><trkpt lat="45.7245714" lon="9.5278427"><ele>299.0</ele><time>2026-04-05T11:13:20.611Z</time></trkpt><trkpt lat="45.7244922" lon="9.5279681"><ele>299.0</ele><time>2026-04-05T11:13:31.475Z</time></trkpt><trkpt lat="45.7244551" lon="9.5280424"><ele>299.0</ele><time>2026-04-05T11:13:38.492Z</time></trkpt><trkpt lat="45.7244128" lon="9.5281416"><ele>299.0</ele><time>2026-04-05T11:13:42.437Z</time></trkpt><trkpt lat="45.7244678" lon="9.5280966"><ele>298.59999999999997</ele><time>2026-04-05T11:13:56.482Z</time></trkpt><trkpt lat="45.7245196" lon="9.5279556"><ele>298.2</ele><time>2026-04-05T11:14:06.433Z</time></trkpt><trkpt lat="45.7246373" lon="9.5279074"><ele>297.79999999999995</ele><time>2026-04-05T11:14:15.466Z</time></trkpt><trkpt lat="45.7247717" lon="9.5279392"><ele>297.4</ele><time>2026-04-05T11:14:24.434Z</time></trkpt><trkpt lat="45.7248346" lon="9.5279855"><ele>297.0</ele><time>2026-04-05T11:14:31.291Z</time></trkpt><trkpt lat="45.7249078" lon="9.5280336"><ele>297.0</ele><time>2026-04-05T11:14:32.258Z</time></trkpt><trkpt lat="45.7249746" lon="9.5280688"><ele>297.0</ele><time>2026-04-05T11:14:34.215Z</time></trkpt><trkpt lat="45.7250352" lon="9.5281431"><ele>297.0</ele><time>2026-04-05T11:14:37.132Z</time></trkpt><trkpt lat="45.7250863" lon="9.5282273"><ele>297.0</ele><time>2026-04-05T11:14:40.075Z</time></trkpt><trkpt lat="45.7251174" lon="9.528334"><ele>297.0</ele><time>2026-04-05T11:14:43.973Z</time></trkpt><trkpt lat="45.7251381" lon="9.5284296"><ele>297.0</ele><time>2026-04-05T11:14:48.915Z</time></trkpt><trkpt lat="45.7252049" lon="9.5284378"><ele>297.0</ele><time>2026-04-05T11:14:58.755Z</time></trkpt><trkpt lat="45.7252807" lon="9.528385"><ele>294.75</ele><time>2026-04-05T11:15:02.672Z</time></trkpt><trkpt lat="45.7254236" lon="9.52835"><ele>292.5</ele><time>2026-04-05T11:15:27.354Z</time></trkpt><trkpt lat="45.7255466" lon="9.5283874"><ele>290.25</ele><time>2026-04-05T11:15:38.394Z</time></trkpt><trkpt lat="45.7256338" lon="9.5285225"><ele>288.0</ele><time>2026-04-05T11:15:45.256Z</time></trkpt><trkpt lat="45.7256709" lon="9.5286322"><ele>288.0</ele><time>2026-04-05T11:15:48.194Z</time></trkpt><trkpt lat="45.7256898" lon="9.5287197"><ele>288.0</ele><time>2026-04-05T11:15:53.21Z</time></trkpt><trkpt lat="45.7256686" lon="9.5288285"><ele>288.0</ele><time>2026-04-05T11:15:57.133Z</time></trkpt><trkpt lat="45.7256633" lon="9.5289323"><ele>288.0</ele><time>2026-04-05T11:16:01.074Z</time></trkpt><trkpt lat="45.7255939" lon="9.5290089"><ele>288.0</ele><time>2026-04-05T11:16:04.016Z</time></trkpt><trkpt lat="45.7255457" lon="9.5290987"><ele>288.0</ele><time>2026-04-05T11:16:07.932Z</time></trkpt><trkpt lat="45.7255709" lon="9.5292023"><ele>287.8333333333333</ele><time>2026-04-05T11:16:12.833Z</time></trkpt><trkpt lat="45.7256685" lon="9.5291456"><ele>287.6666666666667</ele><time>2026-04-05T11:16:14.813Z</time></trkpt><trkpt lat="45.7256943" lon="9.5292446"><ele>287.5</ele><time>2026-04-05T11:16:20.252Z</time></trkpt><trkpt lat="45.7256722" lon="9.5293476"><ele>287.33333333333337</ele><time>2026-04-05T11:16:25.175Z</time></trkpt><trkpt lat="45.7256701" lon="9.5294409"><ele>287.1666666666667</ele><time>2026-04-05T11:16:29.472Z</time></trkpt><trkpt lat="45.7256587" lon="9.5295313"><ele>287.0</ele><time>2026-04-05T11:16:36.492Z</time></trkpt><trkpt lat="45.7256511" lon="9.5296411"><ele>286.5</ele><time>2026-04-05T11:16:46.317Z</time></trkpt><trkpt lat="45.7256245" lon="9.5298128"><ele>286.0</ele><time>2026-04-05T11:16:52.211Z</time></trkpt><trkpt lat="45.725597" lon="9.529933"><ele>285.5</ele><time>2026-04-05T11:16:55.115Z</time></trkpt><trkpt lat="45.7255823" lon="9.5300331"><ele>285.0</ele><time>2026-04-05T11:16:57.992Z</time></trkpt><trkpt lat="45.7255544" lon="9.5301183"><ele>284.5</ele><time>2026-04-05T11:17:02.898Z</time></trkpt><trkpt lat="45.7255157" lon="9.5301937"><ele>284.0</ele><time>2026-04-05T11:17:09.832Z</time></trkpt><trkpt lat="45.7254687" lon="9.5302628"><ele>284.0</ele><time>2026-04-05T11:17:16.712Z</time></trkpt><trkpt lat="45.7254366" lon="9.5303487"><ele>284.0</ele><time>2026-04-05T11:17:23.312Z</time></trkpt><trkpt lat="45.7254108" lon="9.5304395"><ele>284.0</ele><time>2026-04-05T11:17:27.316Z</time></trkpt><trkpt lat="45.7253791" lon="9.5305275"><ele>284.0</ele><time>2026-04-05T11:17:32.012Z</time></trkpt><trkpt lat="45.7253484" lon="9.5306222"><ele>284.0</ele><time>2026-04-05T11:17:37.478Z</time></trkpt><trkpt lat="45.7253078" lon="9.5307215"><ele>284.0</ele><time>2026-04-05T11:17:49.435Z</time></trkpt><trkpt lat="45.7253159" lon="9.5308438"><ele>284.0</ele><time>2026-04-05T11:17:53.45Z</time></trkpt><trkpt lat="45.7253186" lon="9.5309535"><ele>283.42857142857144</ele><time>2026-04-05T11:18:08.418Z</time></trkpt><trkpt lat="45.7253077" lon="9.5310568"><ele>282.85714285714283</ele><time>2026-04-05T11:18:14.433Z</time></trkpt><trkpt lat="45.725294" lon="9.5311481"><ele>282.2857142857143</ele><time>2026-04-05T11:18:20.473Z</time></trkpt><trkpt lat="45.7252217" lon="9.5312585"><ele>281.7142857142857</ele><time>2026-04-05T11:18:23.474Z</time></trkpt><trkpt lat="45.7251891" lon="9.5313382"><ele>281.1428571428571</ele><time>2026-04-05T11:18:26.5Z</time></trkpt><trkpt lat="45.7251472" lon="9.5314131"><ele>280.57142857142856</ele><time>2026-04-05T11:18:46.393Z</time></trkpt><trkpt lat="45.7250837" lon="9.5314592"><ele>280.0</ele><time>2026-04-05T11:18:49.503Z</time></trkpt><trkpt lat="45.7250151" lon="9.5314763"><ele>284.2</ele><time>2026-04-05T11:19:13.313Z</time></trkpt><trkpt lat="45.7249303" lon="9.5315328"><ele>288.4</ele><time>2026-04-05T11:19:19.438Z</time></trkpt><trkpt lat="45.7248138" lon="9.5315999"><ele>292.6</ele><time>2026-04-05T11:19:32.498Z</time></trkpt><trkpt lat="45.7247311" lon="9.5316681"><ele>296.8</ele><time>2026-04-05T11:19:45.474Z</time></trkpt><trkpt lat="45.7246619" lon="9.5317054"><ele>301.0</ele><time>2026-04-05T11:19:55.514Z</time></trkpt><trkpt lat="45.7246023" lon="9.5317543"><ele>301.0</ele><time>2026-04-05T11:20:17.501Z</time></trkpt><trkpt lat="45.7245446" lon="9.5317932"><ele>301.0</ele><time>2026-04-05T11:20:21.417Z</time></trkpt><trkpt lat="45.7244915" lon="9.5319284"><ele>301.0</ele><time>2026-04-05T11:20:33.472Z</time></trkpt><trkpt lat="45.7244642" lon="9.5320366"><ele>301.0</ele><time>2026-04-05T11:20:43.396Z</time></trkpt><trkpt lat="45.724455" lon="9.5321374"><ele>301.0</ele><time>2026-04-05T11:20:51.454Z</time></trkpt><trkpt lat="45.724435" lon="9.5322347"><ele>301.0</ele><time>2026-04-05T11:20:55.472Z</time></trkpt><trkpt lat="45.7244407" lon="9.5323297"><ele>305.3333333333333</ele><time>2026-04-05T11:21:06.476Z</time></trkpt><trkpt lat="45.7243731" lon="9.5324052"><ele>309.66666666666663</ele><time>2026-04-05T11:21:08.429Z</time></trkpt><trkpt lat="45.7243331" lon="9.5324753"><ele>314.0</ele><time>2026-04-05T11:21:11.443Z</time></trkpt><trkpt lat="45.7242883" lon="9.5325741"><ele>318.3333333333333</ele><time>2026-04-05T11:21:25.305Z</time></trkpt><trkpt lat="45.7242719" lon="9.5326685"><ele>322.6666666666667</ele><time>2026-04-05T11:21:30.335Z</time></trkpt><trkpt lat="45.7242463" lon="9.5327517"><ele>327.0</ele><time>2026-04-05T11:21:33.443Z</time></trkpt><trkpt lat="45.7241815" lon="9.5328619"><ele>324.25</ele><time>2026-04-05T11:21:49.415Z</time></trkpt><trkpt lat="45.7240446" lon="9.5329109"><ele>321.5</ele><time>2026-04-05T11:22:14.427Z</time></trkpt><trkpt lat="45.7239101" lon="9.532911"><ele>318.75</ele><time>2026-04-05T11:22:30.493Z</time></trkpt><trkpt lat="45.7238397" lon="9.5329332"><ele>316.0</ele><time>2026-04-05T11:22:34.417Z</time></trkpt><trkpt lat="45.7237283" lon="9.5328931"><ele>317.8333333333333</ele><time>2026-04-05T11:22:54.407Z</time></trkpt><trkpt lat="45.7236682" lon="9.53286"><ele>319.66666666666663</ele><time>2026-04-05T11:23:00.435Z</time></trkpt><trkpt lat="45.7235824" lon="9.5327819"><ele>321.5</ele><time>2026-04-05T11:23:03.448Z</time></trkpt><trkpt lat="45.723516" lon="9.5327403"><ele>323.3333333333333</ele><time>2026-04-05T11:23:10.479Z</time></trkpt><trkpt lat="45.7234524" lon="9.5327367"><ele>325.1666666666667</ele><time>2026-04-05T11:23:16.506Z</time></trkpt><trkpt lat="45.7233431" lon="9.5328376"><ele>327.0</ele><time>2026-04-05T11:23:26.453Z</time></trkpt><trkpt lat="45.7232692" lon="9.5328888"><ele>327.7142857142857</ele><time>2026-04-05T11:23:29.466Z</time></trkpt><trkpt lat="45.7232034" lon="9.5328926"><ele>328.42857142857144</ele><time>2026-04-05T11:23:36.497Z</time></trkpt><trkpt lat="45.7231395" lon="9.5329058"><ele>329.1428571428571</ele><time>2026-04-05T11:23:40.416Z</time></trkpt><trkpt lat="45.7230681" lon="9.5328985"><ele>329.8571428571429</ele><time>2026-04-05T11:23:47.454Z</time></trkpt><trkpt lat="45.7229954" lon="9.5329112"><ele>330.5714285714286</ele><time>2026-04-05T11:23:51.352Z</time></trkpt><trkpt lat="45.722914" lon="9.5329161"><ele>331.2857142857143</ele><time>2026-04-05T11:24:10.413Z</time></trkpt><trkpt lat="45.7228372" lon="9.5328957"><ele>332.0</ele><time>2026-04-05T11:24:15.473Z</time></trkpt><trkpt lat="45.7227684" lon="9.5328646"><ele>331.33333333333337</ele><time>2026-04-05T11:24:29.436Z</time></trkpt><trkpt lat="45.7226902" lon="9.5327903"><ele>330.6666666666667</ele><time>2026-04-05T11:24:30.442Z</time></trkpt><trkpt lat="45.7226355" lon="9.5326963"><ele>330.0</ele><time>2026-04-05T11:24:34.46Z</time></trkpt><trkpt lat="45.7225885" lon="9.532626"><ele>329.3333333333333</ele><time>2026-04-05T11:24:37.473Z</time></trkpt><trkpt lat="45.7225387" lon="9.5325517"><ele>328.66666666666663</ele><time>2026-04-05T11:24:41.491Z</time></trkpt><trkpt lat="45.7224993" lon="9.5324758"><ele>328.0</ele><time>2026-04-05T11:24:46.356Z</time></trkpt><trkpt lat="45.722465" lon="9.5323717"><ele>328.0</ele><time>2026-04-05T11:25:00.476Z</time></trkpt><trkpt lat="45.7224175" lon="9.5322554"><ele>328.0</ele><time>2026-04-05T11:25:02.486Z</time></trkpt><trkpt lat="45.7223616" lon="9.5322138"><ele>328.0</ele><time>2026-04-05T11:25:05.5Z</time></trkpt><trkpt lat="45.7222991" lon="9.5322284"><ele>328.0</ele><time>2026-04-05T11:25:08.315Z</time></trkpt><trkpt lat="45.7222219" lon="9.5322119"><ele>328.0</ele><time>2026-04-05T11:25:12.454Z</time></trkpt><trkpt lat="45.7221635" lon="9.5320971"><ele>328.0</ele><time>2026-04-05T11:25:26.494Z</time></trkpt><trkpt lat="45.7221419" lon="9.5319972"><ele>330.66666666666663</ele><time>2026-04-05T11:25:33.453Z</time></trkpt><trkpt lat="45.7221233" lon="9.5319014"><ele>333.3333333333333</ele><time>2026-04-05T11:25:37.443Z</time></trkpt><trkpt lat="45.722067" lon="9.5317341"><ele>336.0</ele><time>2026-04-05T11:25:57.434Z</time></trkpt><trkpt lat="45.7220624" lon="9.5316379"><ele>338.6666666666667</ele><time>2026-04-05T11:26:02.474Z</time></trkpt><trkpt lat="45.7220578" lon="9.5315402"><ele>341.33333333333337</ele><time>2026-04-05T11:26:05.47Z</time></trkpt><trkpt lat="45.7220528" lon="9.5313852"><ele>344.0</ele><time>2026-04-05T11:28:13.451Z</time></trkpt><trkpt lat="45.7220542" lon="9.5312912"><ele>346.4</ele><time>2026-04-05T11:28:15.46Z</time></trkpt><trkpt lat="45.7220695" lon="9.5311838"><ele>348.79999999999995</ele><time>2026-04-05T11:28:27.413Z</time></trkpt><trkpt lat="45.7220955" lon="9.5310947"><ele>351.20000000000005</ele><time>2026-04-05T11:28:30.475Z</time></trkpt><trkpt lat="45.7219801" lon="9.5312124"><ele>353.6</ele><time>2026-04-05T11:29:03.478Z</time></trkpt><trkpt lat="45.7218944" lon="9.5313286"><ele>356.0</ele><time>2026-04-05T11:29:14.476Z</time></trkpt><trkpt lat="45.7218352" lon="9.5313845"><ele>348.2</ele><time>2026-04-05T11:29:19.451Z</time></trkpt><trkpt lat="45.7217656" lon="9.5314204"><ele>340.40000000000003</ele><time>2026-04-05T11:29:24.196Z</time></trkpt><trkpt lat="45.721573" lon="9.5315298"><ele>332.6</ele><time>2026-04-05T11:29:49.488Z</time></trkpt><trkpt lat="45.7215049" lon="9.5315588"><ele>324.8</ele><time>2026-04-05T11:29:53.016Z</time></trkpt><trkpt lat="45.7214425" lon="9.531597"><ele>317.0</ele><time>2026-04-05T11:29:57.933Z</time></trkpt><trkpt lat="45.7213977" lon="9.5314723"><ele>317.0</ele><time>2026-04-05T11:30:12.391Z</time></trkpt><trkpt lat="45.7213749" lon="9.5313853"><ele>317.0</ele><time>2026-04-05T11:30:22.074Z</time></trkpt><trkpt lat="45.7212773" lon="9.5313271"><ele>317.0</ele><time>2026-04-05T11:30:24.447Z</time></trkpt><trkpt lat="45.721143" lon="9.5313602"><ele>317.0</ele><time>2026-04-05T11:30:48.292Z</time></trkpt><trkpt lat="45.7210573" lon="9.5313669"><ele>317.0</ele><time>2026-04-05T11:30:50.351Z</time></trkpt><trkpt lat="45.7209516" lon="9.5312435"><ele>317.0</ele><time>2026-04-05T11:30:59.374Z</time></trkpt><trkpt lat="45.7209249" lon="9.5311306"><ele>317.0</ele><time>2026-04-05T11:31:00.352Z</time></trkpt><trkpt lat="45.7208763" lon="9.5311996"><ele>317.0</ele><time>2026-04-05T11:31:13.471Z</time></trkpt><trkpt lat="45.7209027" lon="9.5312994"><ele>317.0</ele><time>2026-04-05T11:31:18.492Z</time></trkpt><trkpt lat="45.72095" lon="9.5313664"><ele>317.0</ele><time>2026-04-05T11:31:29.442Z</time></trkpt><trkpt lat="45.7209816" lon="9.5314563"><ele>317.0</ele><time>2026-04-05T11:31:34.466Z</time></trkpt><trkpt lat="45.7210421" lon="9.531533"><ele>317.0</ele><time>2026-04-05T11:31:39.431Z</time></trkpt><trkpt lat="45.7210959" lon="9.5315959"><ele>317.0</ele><time>2026-04-05T11:31:44.434Z</time></trkpt><trkpt lat="45.7211364" lon="9.531691"><ele>317.0</ele><time>2026-04-05T11:31:49.412Z</time></trkpt><trkpt lat="45.7211719" lon="9.5317967"><ele>317.0</ele><time>2026-04-05T11:31:56.434Z</time></trkpt><trkpt lat="45.7211753" lon="9.5318966"><ele>317.0</ele><time>2026-04-05T11:31:59.492Z</time></trkpt><trkpt lat="45.7211692" lon="9.5319895"><ele>317.0</ele><time>2026-04-05T11:32:03.498Z</time></trkpt><trkpt lat="45.7212128" lon="9.5320664"><ele>317.0</ele><time>2026-04-05T11:32:09.426Z</time></trkpt><trkpt lat="45.7212254" lon="9.5321898"><ele>315.2</ele><time>2026-04-05T11:32:23.331Z</time></trkpt><trkpt lat="45.7212441" lon="9.5323649"><ele>313.4</ele><time>2026-04-05T11:32:31.433Z</time></trkpt><trkpt lat="45.7212465" lon="9.5324573"><ele>311.6</ele><time>2026-04-05T11:32:38.476Z</time></trkpt><trkpt lat="45.7212249" lon="9.5325883"><ele>309.8</ele><time>2026-04-05T11:32:41.472Z</time></trkpt><trkpt lat="45.7212554" lon="9.5327495"><ele>308.0</ele><time>2026-04-05T11:32:50.412Z</time></trkpt><trkpt lat="45.7212582" lon="9.5328656"><ele>307.6666666666667</ele><time>2026-04-05T11:33:11.408Z</time></trkpt><trkpt lat="45.7212033" lon="9.532968"><ele>307.33333333333337</ele><time>2026-04-05T11:33:48.392Z</time></trkpt><trkpt lat="45.7211198" lon="9.5329782"><ele>307.0</ele><time>2026-04-05T11:34:21.434Z</time></trkpt><trkpt lat="45.721031" lon="9.5330359"><ele>306.6666666666667</ele><time>2026-04-05T11:34:57.405Z</time></trkpt><trkpt lat="45.7209507" lon="9.5330417"><ele>306.3333333333333</ele><time>2026-04-05T11:35:12.393Z</time></trkpt><trkpt lat="45.7208862" lon="9.5330314"><ele>306.0</ele><time>2026-04-05T11:35:17.399Z</time></trkpt><trkpt lat="45.7207918" lon="9.5330322"><ele>308.3333333333333</ele><time>2026-04-05T11:35:32.393Z</time></trkpt><trkpt lat="45.7207232" lon="9.5330246"><ele>310.6666666666667</ele><time>2026-04-05T11:35:44.425Z</time></trkpt><trkpt lat="45.7206568" lon="9.5330203"><ele>313.0</ele><time>2026-04-05T11:35:48.444Z</time></trkpt><trkpt lat="45.720594" lon="9.5330098"><ele>315.33333333333337</ele><time>2026-04-05T11:35:56.392Z</time></trkpt><trkpt lat="45.720515" lon="9.5329743"><ele>317.6666666666667</ele><time>2026-04-05T11:36:16.476Z</time></trkpt><trkpt lat="45.7204101" lon="9.532949"><ele>320.0</ele><time>2026-04-05T11:36:19.393Z</time></trkpt><trkpt lat="45.7202865" lon="9.5330204"><ele>320.0</ele><time>2026-04-05T11:36:31.446Z</time></trkpt><trkpt lat="45.7203695" lon="9.5329904"><ele>320.0</ele><time>2026-04-05T11:36:52.445Z</time></trkpt><trkpt lat="45.7204081" lon="9.5327912"><ele>320.0</ele><time>2026-04-05T11:37:05.407Z</time></trkpt><trkpt lat="45.7204194" lon="9.5326981"><ele>320.0</ele><time>2026-04-05T11:37:08.422Z</time></trkpt><trkpt lat="45.7204243" lon="9.5325478"><ele>320.0</ele><time>2026-04-05T11:37:31.429Z</time></trkpt><trkpt lat="45.7204248" lon="9.5324461"><ele>319.1666666666667</ele><time>2026-04-05T11:37:41.392Z</time></trkpt><trkpt lat="45.7203941" lon="9.5323508"><ele>318.33333333333337</ele><time>2026-04-05T11:38:08.405Z</time></trkpt><trkpt lat="45.7203305" lon="9.5322833"><ele>317.5</ele><time>2026-04-05T11:38:10.43Z</time></trkpt><trkpt lat="45.7203184" lon="9.5321891"><ele>316.6666666666667</ele><time>2026-04-05T11:38:21.392Z</time></trkpt><trkpt lat="45.7202326" lon="9.5321581"><ele>315.8333333333333</ele><time>2026-04-05T11:38:46.393Z</time></trkpt><trkpt lat="45.7201634" lon="9.532121"><ele>315.0</ele><time>2026-04-05T11:38:49.397Z</time></trkpt><trkpt lat="45.720093" lon="9.53212"><ele>320.2</ele><time>2026-04-05T11:39:12.405Z</time></trkpt><trkpt lat="45.7199885" lon="9.5321064"><ele>325.4</ele><time>2026-04-05T11:39:38.429Z</time></trkpt><trkpt lat="45.7199072" lon="9.5320916"><ele>330.6</ele><time>2026-04-05T11:39:46.392Z</time></trkpt><trkpt lat="45.719839" lon="9.5320982"><ele>335.8</ele><time>2026-04-05T11:39:49.431Z</time></trkpt><trkpt lat="45.7197624" lon="9.5321943"><ele>341.0</ele><time>2026-04-05T11:40:01.436Z</time></trkpt><trkpt lat="45.7196334" lon="9.532315"><ele>341.0</ele><time>2026-04-05T11:40:19.472Z</time></trkpt><trkpt lat="45.7195497" lon="9.5323644"><ele>341.0</ele><time>2026-04-05T11:40:25.45Z</time></trkpt><trkpt lat="45.7194774" lon="9.5323981"><ele>341.0</ele><time>2026-04-05T11:40:28.462Z</time></trkpt><trkpt lat="45.7194062" lon="9.5324137"><ele>341.0</ele><time>2026-04-05T11:40:34.393Z</time></trkpt><trkpt lat="45.7193345" lon="9.5324311"><ele>341.0</ele><time>2026-04-05T11:40:38.409Z</time></trkpt><trkpt lat="45.7192701" lon="9.5324648"><ele>341.0</ele><time>2026-04-05T11:40:41.424Z</time></trkpt><trkpt lat="45.7193434" lon="9.5326294"><ele>340.8</ele><time>2026-04-05T11:40:51.392Z</time></trkpt><trkpt lat="45.7193535" lon="9.532734"><ele>340.6</ele><time>2026-04-05T11:40:56.393Z</time></trkpt><trkpt lat="45.7193545" lon="9.5328255"><ele>340.4</ele><time>2026-04-05T11:41:03.314Z</time></trkpt><trkpt lat="45.7193815" lon="9.5329454"><ele>340.2</ele><time>2026-04-05T11:41:13.393Z</time></trkpt><trkpt lat="45.71944" lon="9.533114"><ele>340.0</ele><time>2026-04-05T11:41:24.423Z</time></trkpt><trkpt lat="45.7195119" lon="9.5332268"><ele>340.0</ele><time>2026-04-05T11:41:33.465Z</time></trkpt><trkpt lat="45.7195682" lon="9.5332736"><ele>340.0</ele><time>2026-04-05T11:41:36.48Z</time></trkpt><trkpt lat="45.719621" lon="9.5333388"><ele>340.0</ele><time>2026-04-05T11:41:41.316Z</time></trkpt><trkpt lat="45.7196843" lon="9.5334139"><ele>340.0</ele><time>2026-04-05T11:41:46.333Z</time></trkpt><trkpt lat="45.7197279" lon="9.5335856"><ele>340.0</ele><time>2026-04-05T11:41:55.468Z</time></trkpt><trkpt lat="45.7197665" lon="9.5336926"><ele>340.0</ele><time>2026-04-05T11:42:00.49Z</time></trkpt><trkpt lat="45.7198022" lon="9.5337701"><ele>341.42857142857144</ele><time>2026-04-05T11:42:04.408Z</time></trkpt><trkpt lat="45.7198535" lon="9.53384"><ele>342.85714285714283</ele><time>2026-04-05T11:42:09.393Z</time></trkpt><trkpt lat="45.7198991" lon="9.5339225"><ele>344.2857142857143</ele><time>2026-04-05T11:42:15.393Z</time></trkpt><trkpt lat="45.719933" lon="9.5340013"><ele>345.7142857142857</ele><time>2026-04-05T11:42:20.336Z</time></trkpt><trkpt lat="45.7199715" lon="9.5340813"><ele>347.1428571428571</ele><time>2026-04-05T11:42:25.311Z</time></trkpt><trkpt lat="45.7199996" lon="9.5341688"><ele>348.57142857142856</ele><time>2026-04-05T11:42:32.436Z</time></trkpt><trkpt lat="45.7200562" lon="9.5342271"><ele>350.0</ele><time>2026-04-05T11:42:36.455Z</time></trkpt><trkpt lat="45.7201155" lon="9.5342643"><ele>350.0</ele><time>2026-04-05T11:42:41.477Z</time></trkpt><trkpt lat="45.7201838" lon="9.5342824"><ele>350.0</ele><time>2026-04-05T11:42:48.41Z</time></trkpt><trkpt lat="45.7202472" lon="9.5342897"><ele>350.0</ele><time>2026-04-05T11:42:53.433Z</time></trkpt><trkpt lat="45.7203097" lon="9.5343227"><ele>350.0</ele><time>2026-04-05T11:43:00.464Z</time></trkpt><trkpt lat="45.7203858" lon="9.5343427"><ele>350.0</ele><time>2026-04-05T11:43:06.492Z</time></trkpt><trkpt lat="45.7204733" lon="9.5343601"><ele>350.0</ele><time>2026-04-05T11:43:15.433Z</time></trkpt><trkpt lat="45.7205374" lon="9.5343923"><ele>350.0</ele><time>2026-04-05T11:43:19.451Z</time></trkpt><trkpt lat="45.7206359" lon="9.5344609"><ele>349.6</ele><time>2026-04-05T11:43:29.496Z</time></trkpt><trkpt lat="45.720702" lon="9.5345013"><ele>349.2</ele><time>2026-04-05T11:43:32.27Z</time></trkpt><trkpt lat="45.7207581" lon="9.5345697"><ele>348.79999999999995</ele><time>2026-04-05T11:43:36.357Z</time></trkpt><trkpt lat="45.7208316" lon="9.5345895"><ele>348.4</ele><time>2026-04-05T11:43:41.393Z</time></trkpt><trkpt lat="45.7208948" lon="9.5345555"><ele>348.0</ele><time>2026-04-05T11:43:45.352Z</time></trkpt><trkpt lat="45.721016" lon="9.5347137"><ele>348.0</ele><time>2026-04-05T11:44:06.465Z</time></trkpt><trkpt lat="45.7210655" lon="9.5347721"><ele>348.0</ele><time>2026-04-05T11:44:12.493Z</time></trkpt><trkpt lat="45.7211334" lon="9.5348651"><ele>348.0</ele><time>2026-04-05T11:44:14.502Z</time></trkpt><trkpt lat="45.7211893" lon="9.5349158"><ele>348.0</ele><time>2026-04-05T11:44:18.098Z</time></trkpt><trkpt lat="45.7212532" lon="9.5349659"><ele>348.0</ele><time>2026-04-05T11:44:23.442Z</time></trkpt><trkpt lat="45.7212991" lon="9.5350581"><ele>348.0</ele><time>2026-04-05T11:44:31.48Z</time></trkpt><trkpt lat="45.7213567" lon="9.5351094"><ele>348.0</ele><time>2026-04-05T11:44:34.393Z</time></trkpt><trkpt lat="45.7214103" lon="9.535177"><ele>348.1666666666667</ele><time>2026-04-05T11:44:40.42Z</time></trkpt><trkpt lat="45.7214805" lon="9.5352314"><ele>348.3333333333333</ele><time>2026-04-05T11:44:44.438Z</time></trkpt><trkpt lat="45.7215516" lon="9.535264"><ele>348.5</ele><time>2026-04-05T11:44:49.46Z</time></trkpt><trkpt lat="45.7216058" lon="9.5353327"><ele>348.66666666666663</ele><time>2026-04-05T11:44:54.483Z</time></trkpt><trkpt lat="45.7216784" lon="9.5354879"><ele>348.8333333333333</ele><time>2026-04-05T11:45:05.433Z</time></trkpt><trkpt lat="45.7217256" lon="9.5355588"><ele>349.0</ele><time>2026-04-05T11:45:10.457Z</time></trkpt><trkpt lat="45.7217429" lon="9.5356546"><ele>349.0</ele><time>2026-04-05T11:45:17.488Z</time></trkpt><trkpt lat="45.7217917" lon="9.5357491"><ele>349.0</ele><time>2026-04-05T11:45:22.411Z</time></trkpt><trkpt lat="45.721826" lon="9.5358307"><ele>349.0</ele><time>2026-04-05T11:45:26.428Z</time></trkpt><trkpt lat="45.7218617" lon="9.5359245"><ele>349.0</ele><time>2026-04-05T11:45:31.393Z</time></trkpt><trkpt lat="45.7218991" lon="9.536011"><ele>349.0</ele><time>2026-04-05T11:45:37.512Z</time></trkpt><trkpt lat="45.7219501" lon="9.5361772"><ele>349.0</ele><time>2026-04-05T11:45:52.446Z</time></trkpt><trkpt lat="45.7219963" lon="9.5362883"><ele>348.8333333333333</ele><time>2026-04-05T11:46:03.496Z</time></trkpt><trkpt lat="45.7220536" lon="9.5363669"><ele>348.66666666666663</ele><time>2026-04-05T11:46:06.313Z</time></trkpt><trkpt lat="45.7221121" lon="9.5364334"><ele>348.5</ele><time>2026-04-05T11:46:10.428Z</time></trkpt><trkpt lat="45.7221807" lon="9.536538"><ele>348.3333333333333</ele><time>2026-04-05T11:46:27.505Z</time></trkpt><trkpt lat="45.722224" lon="9.5366035"><ele>348.1666666666667</ele><time>2026-04-05T11:46:36.446Z</time></trkpt><trkpt lat="45.7222794" lon="9.5367094"><ele>348.0</ele><time>2026-04-05T11:46:37.45Z</time></trkpt><trkpt lat="45.7223173" lon="9.5367888"><ele>348.0</ele><time>2026-04-05T11:46:42.474Z</time></trkpt><trkpt lat="45.7223556" lon="9.5368977"><ele>348.0</ele><time>2026-04-05T11:46:43.479Z</time></trkpt><trkpt lat="45.7223871" lon="9.5369885"><ele>348.0</ele><time>2026-04-05T11:46:46.491Z</time></trkpt><trkpt lat="45.7224301" lon="9.5370639"><ele>348.0</ele><time>2026-04-05T11:46:50.41Z</time></trkpt><trkpt lat="45.7224945" lon="9.5371508"><ele>348.0</ele><time>2026-04-05T11:47:03.469Z</time></trkpt><trkpt lat="45.7225515" lon="9.5373385"><ele>347.3333333333333</ele><time>2026-04-05T11:47:12.41Z</time></trkpt><trkpt lat="45.7225886" lon="9.5374374"><ele>346.6666666666667</ele><time>2026-04-05T11:47:15.356Z</time></trkpt><trkpt lat="45.7226239" lon="9.5375206"><ele>346.0</ele><time>2026-04-05T11:47:19.412Z</time></trkpt><trkpt lat="45.7226627" lon="9.53761"><ele>345.33333333333337</ele><time>2026-04-05T11:47:24.465Z</time></trkpt><trkpt lat="45.7226673" lon="9.5377204"><ele>344.6666666666667</ele><time>2026-04-05T11:47:33.432Z</time></trkpt><trkpt lat="45.7226837" lon="9.5378333"><ele>344.0</ele><time>2026-04-05T11:47:37.423Z</time></trkpt><trkpt lat="45.7226195" lon="9.5379746"><ele>344.0</ele><time>2026-04-05T11:47:54.271Z</time></trkpt><trkpt lat="45.7225138" lon="9.5381037"><ele>344.0</ele><time>2026-04-05T11:48:05.45Z</time></trkpt><trkpt lat="45.7224188" lon="9.5382079"><ele>344.0</ele><time>2026-04-05T11:48:11.477Z</time></trkpt><trkpt lat="45.7223588" lon="9.5382506"><ele>344.0</ele><time>2026-04-05T11:48:13.487Z</time></trkpt><trkpt lat="45.7223054" lon="9.5383153"><ele>344.0</ele><time>2026-04-05T11:48:18.409Z</time></trkpt><trkpt lat="45.7222406" lon="9.5383893"><ele>344.00000000000006</ele><time>2026-04-05T11:48:24.436Z</time></trkpt><trkpt lat="45.7221885" lon="9.5384532"><ele>344.0</ele><time>2026-04-05T11:48:28.35Z</time></trkpt><trkpt lat="45.7221484" lon="9.5385356"><ele>344.0</ele><time>2026-04-05T11:48:33.454Z</time></trkpt><trkpt lat="45.722149" lon="9.5386301"><ele>344.0</ele><time>2026-04-05T11:48:43.423Z</time></trkpt><trkpt lat="45.7221762" lon="9.538715"><ele>344.0</ele><time>2026-04-05T11:48:47.473Z</time></trkpt><trkpt lat="45.722168" lon="9.5388358"><ele>344.00000000000006</ele><time>2026-04-05T11:49:03.511Z</time></trkpt><trkpt lat="45.7221874" lon="9.5389256"><ele>344.0</ele><time>2026-04-05T11:49:09.44Z</time></trkpt><trkpt lat="45.7222079" lon="9.5390727"><ele>341.79999999999995</ele><time>2026-04-05T11:49:13.459Z</time></trkpt><trkpt lat="45.7222187" lon="9.539185"><ele>339.59999999999997</ele><time>2026-04-05T11:49:16.473Z</time></trkpt><trkpt lat="45.7222251" lon="9.5392815"><ele>337.4</ele><time>2026-04-05T11:49:19.486Z</time></trkpt><trkpt lat="45.7222475" lon="9.5393759"><ele>335.2</ele><time>2026-04-05T11:49:23.404Z</time></trkpt><trkpt lat="45.7222782" lon="9.5395719"><ele>333.0</ele><time>2026-04-05T11:49:39.476Z</time></trkpt><trkpt lat="45.7222689" lon="9.5397487"><ele>332.0</ele><time>2026-04-05T11:49:49.495Z</time></trkpt><trkpt lat="45.7222186" lon="9.5399408"><ele>331.0</ele><time>2026-04-05T11:49:58.462Z</time></trkpt><trkpt lat="45.7221772" lon="9.540037"><ele>330.0</ele><time>2026-04-05T11:50:00.471Z</time></trkpt><trkpt lat="45.7221625" lon="9.5401538"><ele>329.0</ele><time>2026-04-05T11:50:03.485Z</time></trkpt><trkpt lat="45.7221291" lon="9.5402503"><ele>328.0</ele><time>2026-04-05T11:50:06.499Z</time></trkpt><trkpt lat="45.722082" lon="9.5403665"><ele>326.66666666666663</ele><time>2026-04-05T11:50:31.413Z</time></trkpt><trkpt lat="45.7220549" lon="9.5404514"><ele>325.3333333333333</ele><time>2026-04-05T11:50:35.431Z</time></trkpt><trkpt lat="45.7219767" lon="9.540575"><ele>324.0</ele><time>2026-04-05T11:51:03.458Z</time></trkpt><trkpt lat="45.7219384" lon="9.540693"><ele>322.6666666666667</ele><time>2026-04-05T11:51:05.467Z</time></trkpt><trkpt lat="45.7218909" lon="9.5407703"><ele>321.33333333333337</ele><time>2026-04-05T11:51:12.498Z</time></trkpt><trkpt lat="45.7218577" lon="9.5408474"><ele>320.0</ele><time>2026-04-05T11:51:15.296Z</time></trkpt><trkpt lat="45.7217751" lon="9.5409384"><ele>320.0</ele><time>2026-04-05T11:51:43.439Z</time></trkpt><trkpt lat="45.7217558" lon="9.5410285"><ele>320.0</ele><time>2026-04-05T11:52:00.272Z</time></trkpt><trkpt lat="45.7217264" lon="9.5411459"><ele>320.0</ele><time>2026-04-05T11:52:01.252Z</time></trkpt><trkpt lat="45.7216907" lon="9.5413202"><ele>320.0</ele><time>2026-04-05T11:53:15.455Z</time></trkpt><trkpt lat="45.721684" lon="9.5414176"><ele>320.0</ele><time>2026-04-05T11:53:18.492Z</time></trkpt><trkpt lat="45.7216392" lon="9.5415041"><ele>320.0</ele><time>2026-04-05T11:53:24.316Z</time></trkpt><trkpt lat="45.7216278" lon="9.5416119"><ele>318.5</ele><time>2026-04-05T11:53:31.155Z</time></trkpt><trkpt lat="45.7216029" lon="9.5417027"><ele>317.0</ele><time>2026-04-05T11:53:36.852Z</time></trkpt><trkpt lat="45.7215786" lon="9.5418162"><ele>315.5</ele><time>2026-04-05T11:53:46.296Z</time></trkpt><trkpt lat="45.7215634" lon="9.5419189"><ele>314.0</ele><time>2026-04-05T11:53:50.136Z</time></trkpt><trkpt lat="45.7215368" lon="9.5420457"><ele>312.5</ele><time>2026-04-05T11:54:05.791Z</time></trkpt><trkpt lat="45.7215098" lon="9.5421365"><ele>311.0</ele><time>2026-04-05T11:54:08.736Z</time></trkpt><trkpt lat="45.7214473" lon="9.5421614"><ele>309.40000000000003</ele><time>2026-04-05T11:54:12.054Z</time></trkpt><trkpt lat="45.7213782" lon="9.5420906"><ele>307.8</ele><time>2026-04-05T11:54:15.952Z</time></trkpt><trkpt lat="45.7213546" lon="9.5421996"><ele>306.20000000000005</ele><time>2026-04-05T11:54:16.911Z</time></trkpt><trkpt lat="45.7211957" lon="9.5422135"><ele>304.6</ele><time>2026-04-05T11:54:33.856Z</time></trkpt><trkpt lat="45.7211254" lon="9.5422104"><ele>303.0</ele><time>2026-04-05T11:54:38.811Z</time></trkpt><trkpt lat="45.7210624" lon="9.542193"><ele>300.8</ele><time>2026-04-05T11:54:43.635Z</time></trkpt><trkpt lat="45.7209825" lon="9.5421648"><ele>298.6</ele><time>2026-04-05T11:54:53.996Z</time></trkpt><trkpt lat="45.7208446" lon="9.5421441"><ele>296.4</ele><time>2026-04-05T11:55:03.445Z</time></trkpt><trkpt lat="45.7207736" lon="9.5421373"><ele>294.2</ele><time>2026-04-05T11:55:06.459Z</time></trkpt><trkpt lat="45.7207034" lon="9.542115"><ele>292.0</ele><time>2026-04-05T11:55:12.495Z</time></trkpt><trkpt lat="45.7206181" lon="9.542053"><ele>292.0</ele><time>2026-04-05T11:55:22.432Z</time></trkpt><trkpt lat="45.7205009" lon="9.5419847"><ele>292.0</ele><time>2026-04-05T11:55:34.353Z</time></trkpt><trkpt lat="45.7203663" lon="9.5419341"><ele>292.0</ele><time>2026-04-05T11:55:46.354Z</time></trkpt><trkpt lat="45.7202424" lon="9.5418971"><ele>292.0</ele><time>2026-04-05T11:55:57.291Z</time></trkpt><trkpt lat="45.7201077" lon="9.5418616"><ele>289.7142857142857</ele><time>2026-04-05T11:56:05.113Z</time></trkpt><trkpt lat="45.720032" lon="9.54184"><ele>287.42857142857144</ele><time>2026-04-05T11:56:08.092Z</time></trkpt><trkpt lat="45.71997" lon="9.5418209"><ele>285.14285714285717</ele><time>2026-04-05T11:56:11.135Z</time></trkpt><trkpt lat="45.7199025" lon="9.5418216"><ele>282.8571428571429</ele><time>2026-04-05T11:56:20.955Z</time></trkpt><trkpt lat="45.7198325" lon="9.5418318"><ele>280.5714285714286</ele><time>2026-04-05T11:56:24.772Z</time></trkpt><trkpt lat="45.7197608" lon="9.5418341"><ele>278.2857142857143</ele><time>2026-04-05T11:56:28.577Z</time></trkpt><trkpt lat="45.7196971" lon="9.5418407"><ele>276.0</ele><time>2026-04-05T11:56:38.477Z</time></trkpt><trkpt lat="45.7196222" lon="9.5417319"><ele>276.0</ele><time>2026-04-05T11:56:42.495Z</time></trkpt><trkpt lat="45.7195785" lon="9.5416281"><ele>276.0</ele><time>2026-04-05T11:56:45.509Z</time></trkpt><trkpt lat="45.719551" lon="9.5415282"><ele>276.0</ele><time>2026-04-05T11:56:49.427Z</time></trkpt><trkpt lat="45.7195234" lon="9.5414316"><ele>276.0</ele><time>2026-04-05T11:56:54.45Z</time></trkpt><trkpt lat="45.7195017" lon="9.5413446"><ele>276.0</ele><time>2026-04-05T11:57:00.476Z</time></trkpt><trkpt lat="45.7194717" lon="9.541265"><ele>276.0</ele><time>2026-04-05T11:57:10.423Z</time></trkpt><trkpt lat="45.7194234" lon="9.5411728"><ele>276.0</ele><time>2026-04-05T11:57:17.47Z</time></trkpt><trkpt lat="45.7193938" lon="9.5410919"><ele>276.40000000000003</ele><time>2026-04-05T11:57:25.512Z</time></trkpt><trkpt lat="45.7193687" lon="9.5409781"><ele>276.8</ele><time>2026-04-05T11:57:29.491Z</time></trkpt><trkpt lat="45.7193388" lon="9.5408306"><ele>277.20000000000005</ele><time>2026-04-05T11:57:40.459Z</time></trkpt><trkpt lat="45.7193227" lon="9.5406504"><ele>277.6</ele><time>2026-04-05T11:59:06.459Z</time></trkpt><trkpt lat="45.7193383" lon="9.5405595"><ele>278.0</ele><time>2026-04-05T11:59:10.417Z</time></trkpt><trkpt lat="45.7193824" lon="9.5404774"><ele>278.1428571428571</ele><time>2026-04-05T11:59:14.352Z</time></trkpt><trkpt lat="45.7194324" lon="9.5404079"><ele>278.2857142857143</ele><time>2026-04-05T11:59:18.416Z</time></trkpt><trkpt lat="45.7194784" lon="9.5403205"><ele>278.42857142857144</ele><time>2026-04-05T11:59:23.439Z</time></trkpt><trkpt lat="45.7195182" lon="9.5402385"><ele>278.57142857142856</ele><time>2026-04-05T11:59:29.468Z</time></trkpt><trkpt lat="45.7195655" lon="9.5401641"><ele>278.7142857142857</ele><time>2026-04-05T11:59:34.392Z</time></trkpt><trkpt lat="45.7195827" lon="9.5400726"><ele>278.85714285714283</ele><time>2026-04-05T11:59:39.452Z</time></trkpt><trkpt lat="45.7196434" lon="9.5400247"><ele>279.0</ele><time>2026-04-05T11:59:43.329Z</time></trkpt><trkpt lat="45.7196678" lon="9.5398311"><ele>278.99999999999994</ele><time>2026-04-05T11:59:55.392Z</time></trkpt><trkpt lat="45.7196505" lon="9.5397101"><ele>279.0</ele><time>2026-04-05T11:59:59.409Z</time></trkpt><trkpt lat="45.7196377" lon="9.5396185"><ele>279.0</ele><time>2026-04-05T12:00:03.428Z</time></trkpt><trkpt lat="45.719622" lon="9.5395224"><ele>279.0</ele><time>2026-04-05T12:00:08.452Z</time></trkpt><trkpt lat="45.7196285" lon="9.5394194"><ele>279.0</ele><time>2026-04-05T12:00:14.392Z</time></trkpt><trkpt lat="45.7196321" lon="9.5393264"><ele>278.99999999999994</ele><time>2026-04-05T12:00:20.409Z</time></trkpt><trkpt lat="45.7196431" lon="9.539215"><ele>279.0</ele><time>2026-04-05T12:00:29.475Z</time></trkpt><trkpt lat="45.719664" lon="9.5391161"><ele>280.0</ele><time>2026-04-05T12:00:32.391Z</time></trkpt><trkpt lat="45.7196656" lon="9.5390169"><ele>281.0</ele><time>2026-04-05T12:00:37.294Z</time></trkpt><trkpt lat="45.7196762" lon="9.5388465"><ele>282.0</ele><time>2026-04-05T12:00:51.17Z</time></trkpt><trkpt lat="45.7196666" lon="9.5387496"><ele>283.0</ele><time>2026-04-05T12:00:53.133Z</time></trkpt><trkpt lat="45.7196344" lon="9.5386112"><ele>284.0</ele><time>2026-04-05T12:01:03.07Z</time></trkpt><trkpt lat="45.7196007" lon="9.5384897"><ele>285.0</ele><time>2026-04-05T12:01:05.01Z</time></trkpt><trkpt lat="45.7195779" lon="9.5383897"><ele>286.0</ele><time>2026-04-05T12:01:08.893Z</time></trkpt><trkpt lat="45.71958" lon="9.5382817"><ele>287.0</ele><time>2026-04-05T12:01:13.751Z</time></trkpt><trkpt lat="45.7196028" lon="9.5381793"><ele>288.0</ele><time>2026-04-05T12:01:18.614Z</time></trkpt><trkpt lat="45.719617" lon="9.5380741"><ele>289.0</ele><time>2026-04-05T12:01:26.42Z</time></trkpt><trkpt lat="45.7196232" lon="9.5379808"><ele>290.0</ele><time>2026-04-05T12:01:31.443Z</time></trkpt><trkpt lat="45.719604" lon="9.5378948"><ele>291.0</ele><time>2026-04-05T12:01:35.462Z</time></trkpt><trkpt lat="45.7195728" lon="9.5378024"><ele>291.5</ele><time>2026-04-05T12:01:39.392Z</time></trkpt><trkpt lat="45.7195481" lon="9.537716"><ele>292.0</ele><time>2026-04-05T12:01:45.409Z</time></trkpt><trkpt lat="45.719512" lon="9.5375413"><ele>292.5</ele><time>2026-04-05T12:01:58.392Z</time></trkpt><trkpt lat="45.7194976" lon="9.5374442"><ele>293.0</ele><time>2026-04-05T12:02:01.392Z</time></trkpt><trkpt lat="45.7194727" lon="9.5373495"><ele>293.5</ele><time>2026-04-05T12:02:05.405Z</time></trkpt><trkpt lat="45.7194601" lon="9.5372591"><ele>294.0</ele><time>2026-04-05T12:02:09.423Z</time></trkpt><trkpt lat="45.7194077" lon="9.5370699"><ele>294.59999999999997</ele><time>2026-04-05T12:02:26.404Z</time></trkpt><trkpt lat="45.7193801" lon="9.5369879"><ele>295.2</ele><time>2026-04-05T12:02:31.427Z</time></trkpt><trkpt lat="45.7193384" lon="9.5368628"><ele>295.79999999999995</ele><time>2026-04-05T12:02:38.461Z</time></trkpt><trkpt lat="45.7192598" lon="9.5367046"><ele>296.4</ele><time>2026-04-05T12:02:49.412Z</time></trkpt><trkpt lat="45.7191846" lon="9.5366176"><ele>297.0</ele><time>2026-04-05T12:03:04.392Z</time></trkpt><trkpt lat="45.7191209" lon="9.5365804"><ele>297.0</ele><time>2026-04-05T12:03:06.393Z</time></trkpt><trkpt lat="45.7190469" lon="9.5365701"><ele>297.0</ele><time>2026-04-05T12:03:09.407Z</time></trkpt><trkpt lat="45.718984" lon="9.5365508"><ele>297.0</ele><time>2026-04-05T12:03:20.45Z</time></trkpt><trkpt lat="45.7188939" lon="9.5365291"><ele>297.0</ele><time>2026-04-05T12:03:22.469Z</time></trkpt><trkpt lat="45.7188069" lon="9.5364281"><ele>297.0</ele><time>2026-04-05T12:03:36.451Z</time></trkpt><trkpt lat="45.7187673" lon="9.5363464"><ele>297.0</ele><time>2026-04-05T12:03:38.446Z</time></trkpt><trkpt lat="45.7187633" lon="9.5361982"><ele>299.1666666666667</ele><time>2026-04-05T12:03:48.292Z</time></trkpt><trkpt lat="45.7187523" lon="9.536098"><ele>301.3333333333333</ele><time>2026-04-05T12:03:51.433Z</time></trkpt><trkpt lat="45.7187334" lon="9.5360083"><ele>303.5</ele><time>2026-04-05T12:03:55.425Z</time></trkpt><trkpt lat="45.7187263" lon="9.5358542"><ele>305.66666666666663</ele><time>2026-04-05T12:04:08.393Z</time></trkpt><trkpt lat="45.7187116" lon="9.535759"><ele>307.8333333333333</ele><time>2026-04-05T12:04:10.392Z</time></trkpt><trkpt lat="45.7187383" lon="9.5355918"><ele>310.0</ele><time>2026-04-05T12:04:23.459Z</time></trkpt><trkpt lat="45.7187101" lon="9.5355087"><ele>313.0</ele><time>2026-04-05T12:04:32.452Z</time></trkpt><trkpt lat="45.718699" lon="9.5353602"><ele>316.0</ele><time>2026-04-05T12:04:40.439Z</time></trkpt><trkpt lat="45.7186968" lon="9.535242"><ele>319.0</ele><time>2026-04-05T12:04:48.393Z</time></trkpt><trkpt lat="45.718702" lon="9.5351512"><ele>322.0</ele><time>2026-04-05T12:04:51.311Z</time></trkpt><trkpt lat="45.7187256" lon="9.5349574"><ele>325.0</ele><time>2026-04-05T12:05:00.435Z</time></trkpt><trkpt lat="45.7187268" lon="9.5347147"><ele>325.0</ele><time>2026-04-05T12:05:19.425Z</time></trkpt><trkpt lat="45.7187129" lon="9.5345758"><ele>325.0</ele><time>2026-04-05T12:05:31.392Z</time></trkpt><trkpt lat="45.7187545" lon="9.534368"><ele>325.0</ele><time>2026-04-05T12:05:41.429Z</time></trkpt><trkpt lat="45.7187979" lon="9.5342888"><ele>325.0</ele><time>2026-04-05T12:05:45.448Z</time></trkpt><trkpt lat="45.7188298" lon="9.5341745"><ele>325.0</ele><time>2026-04-05T12:06:03.434Z</time></trkpt><trkpt lat="45.7188765" lon="9.533992"><ele>328.0</ele><time>2026-04-05T12:06:16.396Z</time></trkpt><trkpt lat="45.7188984" lon="9.5338456"><ele>331.0</ele><time>2026-04-05T12:06:33.391Z</time></trkpt><trkpt lat="45.7189493" lon="9.5336694"><ele>334.0</ele><time>2026-04-05T12:07:00.351Z</time></trkpt><trkpt lat="45.7189775" lon="9.5335835"><ele>337.0</ele><time>2026-04-05T12:07:02.312Z</time></trkpt><trkpt lat="45.7190315" lon="9.5334784"><ele>340.0</ele><time>2026-04-05T12:07:15.391Z</time></trkpt><trkpt lat="45.7190813" lon="9.5334036"><ele>342.0</ele><time>2026-04-05T12:07:19.397Z</time></trkpt><trkpt lat="45.7191273" lon="9.5332158"><ele>344.0</ele><time>2026-04-05T12:07:40.398Z</time></trkpt><trkpt lat="45.7191452" lon="9.5331268"><ele>346.0</ele><time>2026-04-05T12:07:53.46Z</time></trkpt><trkpt lat="45.7191755" lon="9.5330176"><ele>348.0</ele><time>2026-04-05T12:08:11.445Z</time></trkpt><trkpt lat="45.7191151" lon="9.532914"><ele>350.0</ele><time>2026-04-05T12:08:50.473Z</time></trkpt><trkpt lat="45.7190264" lon="9.532838"><ele>350.0</ele><time>2026-04-05T12:09:08.272Z</time></trkpt><trkpt lat="45.7189226" lon="9.5328267"><ele>350.0</ele><time>2026-04-05T12:09:22.369Z</time></trkpt><trkpt lat="45.7188467" lon="9.5328579"><ele>350.0</ele><time>2026-04-05T12:09:31.393Z</time></trkpt><trkpt lat="45.7187864" lon="9.5328864"><ele>350.0</ele><time>2026-04-05T12:09:38.461Z</time></trkpt><trkpt lat="45.7187622" lon="9.5329798"><ele>350.0</ele><time>2026-04-05T12:09:42.392Z</time></trkpt><trkpt lat="45.718675" lon="9.5331157"><ele>350.0</ele><time>2026-04-05T12:10:02.432Z</time></trkpt><trkpt lat="45.7186273" lon="9.5331942"><ele>355.4</ele><time>2026-04-05T12:10:04.391Z</time></trkpt><trkpt lat="45.7185458" lon="9.5333228"><ele>360.8</ele><time>2026-04-05T12:10:17.447Z</time></trkpt><trkpt lat="45.7184842" lon="9.5333969"><ele>366.20000000000005</ele><time>2026-04-05T12:10:20.461Z</time></trkpt><trkpt lat="45.7183957" lon="9.5335057"><ele>371.6</ele><time>2026-04-05T12:10:29.404Z</time></trkpt><trkpt lat="45.7183489" lon="9.5335703"><ele>377.0</ele><time>2026-04-05T12:10:34.41Z</time></trkpt><trkpt lat="45.7182276" lon="9.5336327"><ele>377.0</ele><time>2026-04-05T12:10:44.453Z</time></trkpt><trkpt lat="45.7180988" lon="9.533625"><ele>377.0</ele><time>2026-04-05T12:11:00.395Z</time></trkpt><trkpt lat="45.7180053" lon="9.5336117"><ele>377.0</ele><time>2026-04-05T12:11:11.431Z</time></trkpt><trkpt lat="45.7179411" lon="9.5336145"><ele>377.0</ele><time>2026-04-05T12:11:13.415Z</time></trkpt><trkpt lat="45.7178768" lon="9.5336605"><ele>377.0</ele><time>2026-04-05T12:11:21.453Z</time></trkpt><trkpt lat="45.7178074" lon="9.5337071"><ele>377.0</ele><time>2026-04-05T12:11:25.391Z</time></trkpt><trkpt lat="45.7177365" lon="9.533706"><ele>376.1666666666667</ele><time>2026-04-05T12:11:32.37Z</time></trkpt><trkpt lat="45.717668" lon="9.5337038"><ele>375.33333333333337</ele><time>2026-04-05T12:11:36.425Z</time></trkpt><trkpt lat="45.7176035" lon="9.5337102"><ele>374.5</ele><time>2026-04-05T12:11:49.391Z</time></trkpt><trkpt lat="45.7175387" lon="9.5337197"><ele>373.6666666666667</ele><time>2026-04-05T12:11:52.271Z</time></trkpt><trkpt lat="45.7174514" lon="9.5337464"><ele>372.8333333333333</ele><time>2026-04-05T12:12:01.444Z</time></trkpt><trkpt lat="45.7173833" lon="9.5337689"><ele>372.0</ele><time>2026-04-05T12:12:04.457Z</time></trkpt><trkpt lat="45.7172454" lon="9.5337583"><ele>372.0</ele><time>2026-04-05T12:12:16.415Z</time></trkpt><trkpt lat="45.7171863" lon="9.5338034"><ele>372.0</ele><time>2026-04-05T12:12:19.43Z</time></trkpt><trkpt lat="45.7171142" lon="9.5338163"><ele>372.0</ele><time>2026-04-05T12:12:26.462Z</time></trkpt><trkpt lat="45.7169703" lon="9.5339044"><ele>372.0</ele><time>2026-04-05T12:12:40.43Z</time></trkpt><trkpt lat="45.7169097" lon="9.5339511"><ele>372.0</ele><time>2026-04-05T12:12:43.443Z</time></trkpt><trkpt lat="45.7168362" lon="9.5339854"><ele>372.0</ele><time>2026-04-05T12:12:47.354Z</time></trkpt><trkpt lat="45.7167728" lon="9.5340317"><ele>374.3333333333333</ele><time>2026-04-05T12:12:51.392Z</time></trkpt><trkpt lat="45.7167145" lon="9.5340696"><ele>376.66666666666663</ele><time>2026-04-05T12:12:56.405Z</time></trkpt><trkpt lat="45.7166023" lon="9.5341566"><ele>379.0</ele><time>2026-04-05T12:13:18.432Z</time></trkpt><trkpt lat="45.7165715" lon="9.5342546"><ele>381.3333333333333</ele><time>2026-04-05T12:13:22.431Z</time></trkpt><trkpt lat="45.7165873" lon="9.5343668"><ele>383.66666666666663</ele><time>2026-04-05T12:13:58.401Z</time></trkpt><trkpt lat="45.7166238" lon="9.5344881"><ele>386.0</ele><time>2026-04-05T12:14:49.446Z</time></trkpt><trkpt lat="45.7166673" lon="9.5345683"><ele>386.28571428571433</ele><time>2026-04-05T12:14:52.461Z</time></trkpt><trkpt lat="45.7167204" lon="9.5346279"><ele>386.57142857142856</ele><time>2026-04-05T12:15:02.41Z</time></trkpt><trkpt lat="45.7167618" lon="9.5347313"><ele>386.8571428571429</ele><time>2026-04-05T12:15:11.452Z</time></trkpt><trkpt lat="45.7167957" lon="9.5348149"><ele>387.14285714285717</ele><time>2026-04-05T12:15:15.472Z</time></trkpt><trkpt lat="45.7168388" lon="9.5348876"><ele>387.42857142857144</ele><time>2026-04-05T12:15:19.392Z</time></trkpt><trkpt lat="45.7168877" lon="9.5349561"><ele>387.7142857142857</ele><time>2026-04-05T12:15:25.42Z</time></trkpt><trkpt lat="45.7169316" lon="9.5350295"><ele>388.0</ele><time>2026-04-05T12:15:30.444Z</time></trkpt><trkpt lat="45.7169655" lon="9.5351251"><ele>388.0</ele><time>2026-04-05T12:15:36.474Z</time></trkpt><trkpt lat="45.7169538" lon="9.5352265"><ele>388.0</ele><time>2026-04-05T12:15:41.498Z</time></trkpt><trkpt lat="45.7169187" lon="9.5353021"><ele>388.0</ele><time>2026-04-05T12:15:47.425Z</time></trkpt><trkpt lat="45.7168322" lon="9.5353558"><ele>388.0</ele><time>2026-04-05T12:15:56.391Z</time></trkpt><trkpt lat="45.7167031" lon="9.5354929"><ele>388.0</ele><time>2026-04-05T12:16:10.331Z</time></trkpt><trkpt lat="45.7165781" lon="9.5356492"><ele>386.00000000000006</ele><time>2026-04-05T12:16:25.407Z</time></trkpt><trkpt lat="45.7165211" lon="9.5357199"><ele>384.0</ele><time>2026-04-05T12:16:28.473Z</time></trkpt><trkpt lat="45.7164975" lon="9.535845"><ele>382.0</ele><time>2026-04-05T12:16:40.39Z</time></trkpt><trkpt lat="45.716481" lon="9.5359353"><ele>380.0</ele><time>2026-04-05T12:16:42.39Z</time></trkpt><trkpt lat="45.7164647" lon="9.5360545"><ele>378.0</ele><time>2026-04-05T12:16:47.414Z</time></trkpt><trkpt lat="45.716479" lon="9.5361551"><ele>376.0</ele><time>2026-04-05T12:16:51.432Z</time></trkpt><trkpt lat="45.7165148" lon="9.5362507"><ele>375.3333333333333</ele><time>2026-04-05T12:16:56.456Z</time></trkpt><trkpt lat="45.7165187" lon="9.536418"><ele>374.66666666666663</ele><time>2026-04-05T12:17:09.417Z</time></trkpt><trkpt lat="45.7164987" lon="9.5365139"><ele>374.0</ele><time>2026-04-05T12:17:11.427Z</time></trkpt><trkpt lat="45.716492" lon="9.5366206"><ele>373.3333333333333</ele><time>2026-04-05T12:17:16.451Z</time></trkpt><trkpt lat="45.716494" lon="9.5367238"><ele>372.6666666666667</ele><time>2026-04-05T12:17:22.39Z</time></trkpt><trkpt lat="45.7164562" lon="9.5367965"><ele>372.0</ele><time>2026-04-05T12:17:27.403Z</time></trkpt><trkpt lat="45.7164287" lon="9.5368807"><ele>372.0</ele><time>2026-04-05T12:17:32.427Z</time></trkpt><trkpt lat="45.7164105" lon="9.5369815"><ele>372.0</ele><time>2026-04-05T12:18:12.418Z</time></trkpt><trkpt lat="45.7164532" lon="9.5371593"><ele>372.0</ele><time>2026-04-05T12:18:20.455Z</time></trkpt><trkpt lat="45.7164784" lon="9.5372469"><ele>372.0</ele><time>2026-04-05T12:18:23.47Z</time></trkpt><trkpt lat="45.7165183" lon="9.5373326"><ele>372.0</ele><time>2026-04-05T12:18:29.398Z</time></trkpt><trkpt lat="45.7165299" lon="9.5374216"><ele>372.0</ele><time>2026-04-05T12:18:35.393Z</time></trkpt><trkpt lat="45.7165445" lon="9.5375154"><ele>372.3333333333333</ele><time>2026-04-05T12:18:39.446Z</time></trkpt><trkpt lat="45.7165491" lon="9.5376153"><ele>372.6666666666667</ele><time>2026-04-05T12:18:46.39Z</time></trkpt><trkpt lat="45.7165074" lon="9.5377065"><ele>373.0</ele><time>2026-04-05T12:18:50.299Z</time></trkpt><trkpt lat="45.7164543" lon="9.537775"><ele>373.33333333333337</ele><time>2026-04-05T12:18:54.332Z</time></trkpt><trkpt lat="45.71641" lon="9.5378429"><ele>373.6666666666667</ele><time>2026-04-05T12:18:59.193Z</time></trkpt><trkpt lat="45.7163893" lon="9.5379453"><ele>374.0</ele><time>2026-04-05T12:19:12.402Z</time></trkpt><trkpt lat="45.7163068" lon="9.5380598"><ele>374.0</ele><time>2026-04-05T12:19:17.426Z</time></trkpt><trkpt lat="45.7162717" lon="9.538141"><ele>374.0</ele><time>2026-04-05T12:19:24.458Z</time></trkpt><trkpt lat="45.7162354" lon="9.5382267"><ele>374.0</ele><time>2026-04-05T12:19:28.477Z</time></trkpt><trkpt lat="45.7161729" lon="9.5382627"><ele>374.0</ele><time>2026-04-05T12:19:34.405Z</time></trkpt><trkpt lat="45.7161139" lon="9.5383247"><ele>374.0</ele><time>2026-04-05T12:19:38.424Z</time></trkpt><trkpt lat="45.7160532" lon="9.5383749"><ele>374.0</ele><time>2026-04-05T12:19:42.443Z</time></trkpt><trkpt lat="45.7159875" lon="9.5384225"><ele>374.0</ele><time>2026-04-05T12:19:47.467Z</time></trkpt><trkpt lat="45.7158965" lon="9.5383879"><ele>374.0</ele><time>2026-04-05T12:20:16.404Z</time></trkpt><trkpt lat="45.7158373" lon="9.5383559"><ele>374.0</ele><time>2026-04-05T12:20:21.427Z</time></trkpt><trkpt lat="45.7157592" lon="9.5383484"><ele>374.0</ele><time>2026-04-05T12:20:29.465Z</time></trkpt><trkpt lat="45.7156971" lon="9.5383913"><ele>374.0</ele><time>2026-04-05T12:20:33.393Z</time></trkpt><trkpt lat="45.7156349" lon="9.5384162"><ele>374.0</ele><time>2026-04-05T12:20:36.376Z</time></trkpt><trkpt lat="45.7155653" lon="9.5384236"><ele>374.0</ele><time>2026-04-05T12:20:41.421Z</time></trkpt><trkpt lat="45.7154945" lon="9.5384357"><ele>374.0</ele><time>2026-04-05T12:20:51.469Z</time></trkpt><trkpt lat="45.7154302" lon="9.5384333"><ele>374.0</ele><time>2026-04-05T12:20:57.395Z</time></trkpt><trkpt lat="45.71534" lon="9.5383544"><ele>374.0</ele><time>2026-04-05T12:21:06.439Z</time></trkpt><trkpt lat="45.71522" lon="9.5382926"><ele>374.0</ele><time>2026-04-05T12:21:16.454Z</time></trkpt><trkpt lat="45.7151575" lon="9.5383142"><ele>374.0</ele><time>2026-04-05T12:21:19.31Z</time></trkpt><trkpt lat="45.7150924" lon="9.5383179"><ele>374.0</ele><time>2026-04-05T12:21:25.174Z</time></trkpt><trkpt lat="45.7150267" lon="9.538341"><ele>374.0</ele><time>2026-04-05T12:21:29.995Z</time></trkpt><trkpt lat="45.7149241" lon="9.5383672"><ele>375.5</ele><time>2026-04-05T12:21:39.492Z</time></trkpt><trkpt lat="45.7148049" lon="9.538305"><ele>377.0</ele><time>2026-04-05T12:21:46.491Z</time></trkpt><trkpt lat="45.7147382" lon="9.5382946"><ele>378.5</ele><time>2026-04-05T12:21:50.442Z</time></trkpt><trkpt lat="45.7147001" lon="9.538372"><ele>380.0</ele><time>2026-04-05T12:22:14.174Z</time></trkpt><trkpt lat="45.7146381" lon="9.5384587"><ele>381.5</ele><time>2026-04-05T12:22:15.135Z</time></trkpt><trkpt lat="45.7145947" lon="9.5385425"><ele>383.0</ele><time>2026-04-05T12:22:17.093Z</time></trkpt><trkpt lat="45.7145717" lon="9.5386476"><ele>378.79999999999995</ele><time>2026-04-05T12:22:21.031Z</time></trkpt><trkpt lat="45.7145621" lon="9.5387425"><ele>374.6</ele><time>2026-04-05T12:22:27.215Z</time></trkpt><trkpt lat="45.7145146" lon="9.5389046"><ele>370.4</ele><time>2026-04-05T12:22:43.488Z</time></trkpt><trkpt lat="45.7144812" lon="9.5390149"><ele>366.20000000000005</ele><time>2026-04-05T12:22:46.502Z</time></trkpt><trkpt lat="45.7144937" lon="9.5391109"><ele>362.0</ele><time>2026-04-05T12:22:50.42Z</time></trkpt><trkpt lat="45.7144419" lon="9.5393049"><ele>365.1666666666667</ele><time>2026-04-05T12:23:06.391Z</time></trkpt><trkpt lat="45.7143559" lon="9.5394437"><ele>368.33333333333337</ele><time>2026-04-05T12:23:15.071Z</time></trkpt><trkpt lat="45.7143027" lon="9.5395435"><ele>371.5</ele><time>2026-04-05T12:23:17.016Z</time></trkpt><trkpt lat="45.7142611" lon="9.5396438"><ele>374.6666666666667</ele><time>2026-04-05T12:23:19.976Z</time></trkpt><trkpt lat="45.7141971" lon="9.5397011"><ele>377.8333333333333</ele><time>2026-04-05T12:23:23.932Z</time></trkpt><trkpt lat="45.7141346" lon="9.5397497"><ele>381.0</ele><time>2026-04-05T12:23:28.855Z</time></trkpt><trkpt lat="45.7141458" lon="9.5398429"><ele>381.0</ele><time>2026-04-05T12:23:33.095Z</time></trkpt><trkpt lat="45.7142122" lon="9.5398978"><ele>381.0</ele><time>2026-04-05T12:23:37.436Z</time></trkpt><trkpt lat="45.714202" lon="9.5400647"><ele>381.0</ele><time>2026-04-05T12:23:53.412Z</time></trkpt><trkpt lat="45.7141534" lon="9.5402754"><ele>381.0</ele><time>2026-04-05T12:24:04.092Z</time></trkpt><trkpt lat="45.7141047" lon="9.5403584"><ele>381.0</ele><time>2026-04-05T12:24:06.033Z</time></trkpt><trkpt lat="45.7140325" lon="9.5404096"><ele>378.4285714285714</ele><time>2026-04-05T12:24:08.933Z</time></trkpt><trkpt lat="45.7139695" lon="9.5404593"><ele>375.8571428571429</ele><time>2026-04-05T12:24:14.75Z</time></trkpt><trkpt lat="45.7139104" lon="9.5405006"><ele>373.2857142857143</ele><time>2026-04-05T12:24:18.614Z</time></trkpt><trkpt lat="45.7138448" lon="9.5405781"><ele>370.71428571428567</ele><time>2026-04-05T12:24:33.136Z</time></trkpt><trkpt lat="45.7137978" lon="9.5406431"><ele>368.1428571428571</ele><time>2026-04-05T12:24:35.056Z</time></trkpt><trkpt lat="45.7137589" lon="9.5407175"><ele>365.57142857142856</ele><time>2026-04-05T12:24:36.993Z</time></trkpt><trkpt lat="45.7136992" lon="9.5408013"><ele>363.0</ele><time>2026-04-05T12:24:39.871Z</time></trkpt><trkpt lat="45.7136444" lon="9.5408496"><ele>363.0</ele><time>2026-04-05T12:24:42.734Z</time></trkpt><trkpt lat="45.7135909" lon="9.5409102"><ele>363.0</ele><time>2026-04-05T12:24:47.551Z</time></trkpt><trkpt lat="45.7135693" lon="9.5410149"><ele>363.0</ele><time>2026-04-05T12:25:01.094Z</time></trkpt><trkpt lat="45.7135422" lon="9.5411264"><ele>363.0</ele><time>2026-04-05T12:25:03.033Z</time></trkpt><trkpt lat="45.7135134" lon="9.5412291"><ele>363.0</ele><time>2026-04-05T12:25:06.897Z</time></trkpt><trkpt lat="45.7134955" lon="9.5413233"><ele>363.0</ele><time>2026-04-05T12:25:13.771Z</time></trkpt><trkpt lat="45.7134632" lon="9.5414302"><ele>363.4</ele><time>2026-04-05T12:25:20.732Z</time></trkpt><trkpt lat="45.7134424" lon="9.5415189"><ele>363.79999999999995</ele><time>2026-04-05T12:25:23.671Z</time></trkpt><trkpt lat="45.7134562" lon="9.5416069"><ele>364.2</ele><time>2026-04-05T12:25:27.658Z</time></trkpt><trkpt lat="45.713456" lon="9.5417988"><ele>364.6</ele><time>2026-04-05T12:25:44.352Z</time></trkpt><trkpt lat="45.7134059" lon="9.5419682"><ele>365.0</ele><time>2026-04-05T12:25:55.232Z</time></trkpt><trkpt lat="45.7133239" lon="9.542167"><ele>365.0</ele><time>2026-04-05T12:26:05.294Z</time></trkpt><trkpt lat="45.713253" lon="9.5423219"><ele>365.0</ele><time>2026-04-05T12:26:17.294Z</time></trkpt><trkpt lat="45.7131845" lon="9.542418"><ele>365.0</ele><time>2026-04-05T12:26:25.155Z</time></trkpt><trkpt lat="45.7131248" lon="9.5424905"><ele>365.0</ele><time>2026-04-05T12:26:27.095Z</time></trkpt><trkpt lat="45.7130541" lon="9.5425483"><ele>365.0</ele><time>2026-04-05T12:26:30.193Z</time></trkpt><trkpt lat="45.7129808" lon="9.542583"><ele>365.0</ele><time>2026-04-05T12:26:37.016Z</time></trkpt><trkpt lat="45.7129084" lon="9.5425757"><ele>365.0</ele><time>2026-04-05T12:26:39.971Z</time></trkpt><trkpt lat="45.7128555" lon="9.542521"><ele>365.0</ele><time>2026-04-05T12:26:44.793Z</time></trkpt><trkpt lat="45.7128149" lon="9.542625"><ele>365.0</ele><time>2026-04-05T12:27:03.173Z</time></trkpt><trkpt lat="45.7127846" lon="9.5427061"><ele>365.0</ele><time>2026-04-05T12:27:06.332Z</time></trkpt><trkpt lat="45.7127576" lon="9.5428033"><ele>365.0</ele><time>2026-04-05T12:27:11.417Z</time></trkpt><trkpt lat="45.712719" lon="9.5429219"><ele>361.7142857142857</ele><time>2026-04-05T12:27:25.295Z</time></trkpt><trkpt lat="45.7126762" lon="9.542995"><ele>358.42857142857144</ele><time>2026-04-05T12:27:28.494Z</time></trkpt><trkpt lat="45.7126609" lon="9.5431243"><ele>355.1428571428571</ele><time>2026-04-05T12:27:42.371Z</time></trkpt><trkpt lat="45.712611" lon="9.5432119"><ele>351.8571428571429</ele><time>2026-04-05T12:28:00.442Z</time></trkpt><trkpt lat="45.7125681" lon="9.5432958"><ele>348.57142857142856</ele><time>2026-04-05T12:28:13.403Z</time></trkpt><trkpt lat="45.7125235" lon="9.5433655"><ele>345.2857142857143</ele><time>2026-04-05T12:28:19.431Z</time></trkpt><trkpt lat="45.7124976" lon="9.5434534"><ele>342.0</ele><time>2026-04-05T12:28:23.478Z</time></trkpt><trkpt lat="45.7125185" lon="9.5435654"><ele>339.0</ele><time>2026-04-05T12:28:37.416Z</time></trkpt><trkpt lat="45.7125419" lon="9.5437224"><ele>336.0</ele><time>2026-04-05T12:28:47.371Z</time></trkpt><trkpt lat="45.7124783" lon="9.5439078"><ele>333.0</ele><time>2026-04-05T12:28:56.4Z</time></trkpt><trkpt lat="45.7124217" lon="9.5439613"><ele>330.0</ele><time>2026-04-05T12:28:58.331Z</time></trkpt><trkpt lat="45.7124004" lon="9.5440494"><ele>327.0</ele><time>2026-04-05T12:29:04.234Z</time></trkpt><trkpt lat="45.7123855" lon="9.5441373"><ele>327.0</ele><time>2026-04-05T12:29:08.313Z</time></trkpt><trkpt lat="45.7123329" lon="9.5442006"><ele>327.0</ele><time>2026-04-05T12:29:13.276Z</time></trkpt><trkpt lat="45.7122948" lon="9.5443028"><ele>327.0</ele><time>2026-04-05T12:29:20.411Z</time></trkpt><trkpt lat="45.7122398" lon="9.5443657"><ele>327.0</ele><time>2026-04-05T12:29:24.429Z</time></trkpt><trkpt lat="45.7121793" lon="9.5443938"><ele>327.0</ele><time>2026-04-05T12:29:29.451Z</time></trkpt><trkpt lat="45.7121181" lon="9.5444639"><ele>327.0</ele><time>2026-04-05T12:29:43.151Z</time></trkpt><trkpt lat="45.7120208" lon="9.5445568"><ele>325.7142857142857</ele><time>2026-04-05T12:29:46.075Z</time></trkpt><trkpt lat="45.7119682" lon="9.5446173"><ele>324.42857142857144</ele><time>2026-04-05T12:29:48.014Z</time></trkpt><trkpt lat="45.7119118" lon="9.5446721"><ele>323.1428571428571</ele><time>2026-04-05T12:29:50.931Z</time></trkpt><trkpt lat="45.7118665" lon="9.5447461"><ele>321.8571428571429</ele><time>2026-04-05T12:29:55.775Z</time></trkpt><trkpt lat="45.7118627" lon="9.5448547"><ele>320.5714285714286</ele><time>2026-04-05T12:30:01.59Z</time></trkpt><trkpt lat="45.7117913" lon="9.5449247"><ele>319.2857142857143</ele><time>2026-04-05T12:30:17.353Z</time></trkpt><trkpt lat="45.7117134" lon="9.5448879"><ele>318.0</ele><time>2026-04-05T12:30:23.214Z</time></trkpt><trkpt lat="45.7116338" lon="9.5448673"><ele>318.0</ele><time>2026-04-05T12:30:27.052Z</time></trkpt><trkpt lat="45.7115524" lon="9.5448527"><ele>318.0</ele><time>2026-04-05T12:30:30.915Z</time></trkpt><trkpt lat="45.711476" lon="9.5448588"><ele>318.0</ele><time>2026-04-05T12:30:32.834Z</time></trkpt><trkpt lat="45.7114216" lon="9.5449231"><ele>318.0</ele><time>2026-04-05T12:30:36.752Z</time></trkpt><trkpt lat="45.711395" lon="9.545007"><ele>318.0</ele><time>2026-04-05T12:30:41.655Z</time></trkpt><trkpt lat="45.7114056" lon="9.5450996"><ele>318.0</ele><time>2026-04-05T12:30:47.551Z</time></trkpt><trkpt lat="45.7113849" lon="9.5451874"><ele>318.0</ele><time>2026-04-05T12:30:59.093Z</time></trkpt><trkpt lat="45.7113767" lon="9.5453035"><ele>317.6666666666667</ele><time>2026-04-05T12:31:02.952Z</time></trkpt><trkpt lat="45.7112965" lon="9.5453845"><ele>317.3333333333333</ele><time>2026-04-05T12:31:04.85Z</time></trkpt><trkpt lat="45.7112864" lon="9.5454746"><ele>317.0</ele><time>2026-04-05T12:31:09.652Z</time></trkpt><trkpt lat="45.7112949" lon="9.5456425"><ele>316.66666666666663</ele><time>2026-04-05T12:31:23.114Z</time></trkpt><trkpt lat="45.7113014" lon="9.5457408"><ele>316.3333333333333</ele><time>2026-04-05T12:31:25.991Z</time></trkpt><trkpt lat="45.7112983" lon="9.5458519"><ele>316.0</ele><time>2026-04-05T12:31:28.87Z</time></trkpt><trkpt lat="45.7113189" lon="9.5459504"><ele>316.0</ele><time>2026-04-05T12:31:33.611Z</time></trkpt><trkpt lat="45.7113429" lon="9.5460469"><ele>316.0</ele><time>2026-04-05T12:31:44.09Z</time></trkpt><trkpt lat="45.7113747" lon="9.5461518"><ele>316.0</ele><time>2026-04-05T12:31:46.974Z</time></trkpt><trkpt lat="45.7113914" lon="9.5462555"><ele>316.0</ele><time>2026-04-05T12:31:50.832Z</time></trkpt><trkpt lat="45.7114072" lon="9.5463525"><ele>316.0</ele><time>2026-04-05T12:31:55.695Z</time></trkpt><trkpt lat="45.71141" lon="9.546457"><ele>316.0</ele><time>2026-04-05T12:32:01.553Z</time></trkpt><trkpt lat="45.7114377" lon="9.5465899"><ele>314.66666666666663</ele><time>2026-04-05T12:32:12.134Z</time></trkpt><trkpt lat="45.7114651" lon="9.5466742"><ele>313.3333333333333</ele><time>2026-04-05T12:32:16.929Z</time></trkpt><trkpt lat="45.7114198" lon="9.5467837"><ele>312.0</ele><time>2026-04-05T12:32:18.894Z</time></trkpt><trkpt lat="45.7114044" lon="9.5468735"><ele>310.6666666666667</ele><time>2026-04-05T12:32:22.734Z</time></trkpt><trkpt lat="45.7113938" lon="9.5469637"><ele>309.33333333333337</ele><time>2026-04-05T12:32:27.562Z</time></trkpt><trkpt lat="45.7113132" lon="9.5468811"><ele>308.0</ele><time>2026-04-05T12:32:39.811Z</time></trkpt><trkpt lat="45.7112494" lon="9.5468351"><ele>308.0</ele><time>2026-04-05T12:32:43.54Z</time></trkpt><trkpt lat="45.7111772" lon="9.5468943"><ele>308.0</ele><time>2026-04-05T12:32:56.374Z</time></trkpt><trkpt lat="45.7111135" lon="9.5469466"><ele>308.0</ele><time>2026-04-05T12:32:59.236Z</time></trkpt><trkpt lat="45.7110614" lon="9.5470042"><ele>308.0</ele><time>2026-04-05T12:33:04.053Z</time></trkpt><trkpt lat="45.7110194" lon="9.5470843"><ele>308.0</ele><time>2026-04-05T12:33:08.854Z</time></trkpt><trkpt lat="45.7109859" lon="9.5472019"><ele>308.0</ele><time>2026-04-05T12:33:19.856Z</time></trkpt><trkpt lat="45.7109484" lon="9.5472862"><ele>302.83333333333337</ele><time>2026-04-05T12:33:22.673Z</time></trkpt><trkpt lat="45.7109244" lon="9.5473742"><ele>297.6666666666667</ele><time>2026-04-05T12:33:26.476Z</time></trkpt><trkpt lat="45.7109181" lon="9.5474768"><ele>292.5</ele><time>2026-04-05T12:33:41.915Z</time></trkpt><trkpt lat="45.7109096" lon="9.5475676"><ele>287.3333333333333</ele><time>2026-04-05T12:33:45.692Z</time></trkpt><trkpt lat="45.7109052" lon="9.5477027"><ele>282.16666666666663</ele><time>2026-04-05T12:33:48.535Z</time></trkpt><trkpt lat="45.7109062" lon="9.5478442"><ele>277.0</ele><time>2026-04-05T12:34:02.402Z</time></trkpt><trkpt lat="45.7109305" lon="9.5479301"><ele>277.0</ele><time>2026-04-05T12:34:06.421Z</time></trkpt><trkpt lat="45.710862" lon="9.5479134"><ele>277.0</ele><time>2026-04-05T12:34:18.476Z</time></trkpt><trkpt lat="45.7107952" lon="9.5478591"><ele>277.0</ele><time>2026-04-05T12:34:36.457Z</time></trkpt><trkpt lat="45.7107359" lon="9.5477923"><ele>277.0</ele><time>2026-04-05T12:34:38.517Z</time></trkpt><trkpt lat="45.7106713" lon="9.5477429"><ele>277.0</ele><time>2026-04-05T12:34:41.514Z</time></trkpt><trkpt lat="45.7106188" lon="9.5476908"><ele>277.0</ele><time>2026-04-05T12:34:46.504Z</time></trkpt><trkpt lat="45.7105776" lon="9.5476197"><ele>277.0</ele><time>2026-04-05T12:34:52.431Z</time></trkpt><trkpt lat="45.710541" lon="9.5474997"><ele>277.0</ele><time>2026-04-05T12:35:06.855Z</time></trkpt><trkpt lat="45.7105314" lon="9.5474062"><ele>277.0</ele><time>2026-04-05T12:35:10.513Z</time></trkpt><trkpt lat="45.710493" lon="9.5473276"><ele>277.0</ele><time>2026-04-05T12:35:13.496Z</time></trkpt><trkpt lat="45.7104547" lon="9.5472382"><ele>277.0</ele><time>2026-04-05T12:35:18.293Z</time></trkpt><trkpt lat="45.7104522" lon="9.5471372"><ele>277.0</ele><time>2026-04-05T12:35:23.073Z</time></trkpt><trkpt lat="45.7104047" lon="9.5470775"><ele>277.0</ele><time>2026-04-05T12:35:31.41Z</time></trkpt><trkpt lat="45.7103758" lon="9.546961"><ele>277.0</ele><time>2026-04-05T12:35:34.47Z</time></trkpt><trkpt lat="45.7103539" lon="9.5468518"><ele>278.2857142857143</ele><time>2026-04-05T12:35:37.374Z</time></trkpt><trkpt lat="45.7103398" lon="9.546758"><ele>279.57142857142856</ele><time>2026-04-05T12:35:41.193Z</time></trkpt><trkpt lat="45.7103058" lon="9.5466686"><ele>280.85714285714283</ele><time>2026-04-05T12:36:01.635Z</time></trkpt><trkpt lat="45.7102771" lon="9.5465661"><ele>282.1428571428571</ele><time>2026-04-05T12:36:04.613Z</time></trkpt><trkpt lat="45.7102592" lon="9.5464779"><ele>283.42857142857144</ele><time>2026-04-05T12:36:07.474Z</time></trkpt><trkpt lat="45.7102347" lon="9.5463669"><ele>284.71428571428567</ele><time>2026-04-05T12:36:10.416Z</time></trkpt><trkpt lat="45.7102161" lon="9.546278"><ele>286.0</ele><time>2026-04-05T12:36:13.333Z</time></trkpt><trkpt lat="45.7101854" lon="9.5461936"><ele>282.8333333333333</ele><time>2026-04-05T12:36:16.191Z</time></trkpt><trkpt lat="45.7101566" lon="9.5461019"><ele>279.66666666666663</ele><time>2026-04-05T12:36:20.434Z</time></trkpt><trkpt lat="45.7101122" lon="9.5460195"><ele>276.5</ele><time>2026-04-05T12:36:29.171Z</time></trkpt><trkpt lat="45.7100889" lon="9.5459298"><ele>273.3333333333333</ele><time>2026-04-05T12:36:32.055Z</time></trkpt><trkpt lat="45.7100704" lon="9.5458281"><ele>270.1666666666667</ele><time>2026-04-05T12:36:35.851Z</time></trkpt><trkpt lat="45.7100445" lon="9.5457377"><ele>267.0</ele><time>2026-04-05T12:36:40.635Z</time></trkpt><trkpt lat="45.7100304" lon="9.5455763"><ele>267.00000000000006</ele><time>2026-04-05T12:36:53.115Z</time></trkpt><trkpt lat="45.7099826" lon="9.5454792"><ele>267.0</ele><time>2026-04-05T12:36:55.053Z</time></trkpt><trkpt lat="45.7099384" lon="9.5454145"><ele>267.0</ele><time>2026-04-05T12:36:57.893Z</time></trkpt><trkpt lat="45.7099222" lon="9.5453142"><ele>267.0</ele><time>2026-04-05T12:37:04.572Z</time></trkpt><trkpt lat="45.7098903" lon="9.5452061"><ele>267.0</ele><time>2026-04-05T12:37:14.05Z</time></trkpt><trkpt lat="45.7098508" lon="9.5451126"><ele>267.00000000000006</ele><time>2026-04-05T12:37:15.934Z</time></trkpt><trkpt lat="45.7098149" lon="9.5450277"><ele>267.0</ele><time>2026-04-05T12:37:19.712Z</time></trkpt><trkpt lat="45.7097877" lon="9.5449147"><ele>267.42857142857144</ele><time>2026-04-05T12:37:30.054Z</time></trkpt><trkpt lat="45.709801" lon="9.5448108"><ele>267.8571428571429</ele><time>2026-04-05T12:37:32.894Z</time></trkpt><trkpt lat="45.709756" lon="9.5447257"><ele>268.2857142857143</ele><time>2026-04-05T12:37:36.614Z</time></trkpt><trkpt lat="45.7097343" lon="9.5446385"><ele>268.7142857142857</ele><time>2026-04-05T12:37:43.133Z</time></trkpt><trkpt lat="45.7097058" lon="9.5445371"><ele>269.1428571428571</ele><time>2026-04-05T12:37:45.93Z</time></trkpt><trkpt lat="45.7096892" lon="9.5444454"><ele>269.57142857142856</ele><time>2026-04-05T12:37:49.674Z</time></trkpt><trkpt lat="45.709687" lon="9.5443485"><ele>270.0</ele><time>2026-04-05T12:38:03.504Z</time></trkpt><trkpt lat="45.7096532" lon="9.5442321"><ele>270.0</ele><time>2026-04-05T12:38:05.412Z</time></trkpt><trkpt lat="45.7096377" lon="9.5441436"><ele>270.0</ele><time>2026-04-05T12:38:07.414Z</time></trkpt><trkpt lat="45.7096475" lon="9.5440512"><ele>270.0</ele><time>2026-04-05T12:38:11.191Z</time></trkpt><trkpt lat="45.7096132" lon="9.5438923"><ele>270.0</ele><time>2026-04-05T12:38:57.45Z</time></trkpt><trkpt lat="45.7095519" lon="9.543715"><ele>270.0</ele><time>2026-04-05T12:39:04.336Z</time></trkpt><trkpt lat="45.7095173" lon="9.5436323"><ele>270.3333333333333</ele><time>2026-04-05T12:39:07.215Z</time></trkpt><trkpt lat="45.7094539" lon="9.543586"><ele>270.6666666666667</ele><time>2026-04-05T12:39:12.418Z</time></trkpt><trkpt lat="45.7094221" lon="9.5434674"><ele>271.0</ele><time>2026-04-05T12:39:24.134Z</time></trkpt><trkpt lat="45.709394" lon="9.5433487"><ele>271.33333333333337</ele><time>2026-04-05T12:39:26.993Z</time></trkpt><trkpt lat="45.7093752" lon="9.5432532"><ele>271.6666666666667</ele><time>2026-04-05T12:39:29.496Z</time></trkpt><trkpt lat="45.7093285" lon="9.5431915"><ele>272.0</ele><time>2026-04-05T12:39:35.9Z</time></trkpt><trkpt lat="45.709279" lon="9.5430866"><ele>270.5</ele><time>2026-04-05T12:39:42.976Z</time></trkpt><trkpt lat="45.7092247" lon="9.5430195"><ele>269.0</ele><time>2026-04-05T12:39:45.793Z</time></trkpt><trkpt lat="45.7092049" lon="9.542929"><ele>267.5</ele><time>2026-04-05T12:39:49.594Z</time></trkpt><trkpt lat="45.7091646" lon="9.5428531"><ele>266.0</ele><time>2026-04-05T12:39:59.115Z</time></trkpt><trkpt lat="45.7091037" lon="9.5427663"><ele>264.5</ele><time>2026-04-05T12:40:01.972Z</time></trkpt><trkpt lat="45.7090706" lon="9.5426631"><ele>263.0</ele><time>2026-04-05T12:40:04.776Z</time></trkpt><trkpt lat="45.7089906" lon="9.5424478"><ele>263.0</ele><time>2026-04-05T12:40:17.955Z</time></trkpt><trkpt lat="45.7089569" lon="9.542357"><ele>263.0</ele><time>2026-04-05T12:40:21.772Z</time></trkpt><trkpt lat="45.7089266" lon="9.542215"><ele>263.0</ele><time>2026-04-05T12:40:34.073Z</time></trkpt><trkpt lat="45.7089223" lon="9.5420971"><ele>263.0</ele><time>2026-04-05T12:40:36.901Z</time></trkpt><trkpt lat="45.7088947" lon="9.5420035"><ele>263.0</ele><time>2026-04-05T12:40:40.754Z</time></trkpt><trkpt lat="45.708849" lon="9.541938"><ele>263.0</ele><time>2026-04-05T12:40:44.538Z</time></trkpt><trkpt lat="45.7088044" lon="9.541864"><ele>263.2857142857143</ele><time>2026-04-05T12:40:55.054Z</time></trkpt><trkpt lat="45.7087538" lon="9.541758"><ele>263.57142857142856</ele><time>2026-04-05T12:40:57.973Z</time></trkpt><trkpt lat="45.7087379" lon="9.5416643"><ele>263.85714285714283</ele><time>2026-04-05T12:41:00.837Z</time></trkpt><trkpt lat="45.7087244" lon="9.5415664"><ele>264.1428571428571</ele><time>2026-04-05T12:41:06.512Z</time></trkpt><trkpt lat="45.7086878" lon="9.5414917"><ele>264.42857142857144</ele><time>2026-04-05T12:41:15.994Z</time></trkpt><trkpt lat="45.7086481" lon="9.5413993"><ele>264.71428571428567</ele><time>2026-04-05T12:41:18.812Z</time></trkpt><trkpt lat="45.7085965" lon="9.5413188"><ele>265.0</ele><time>2026-04-05T12:41:22.635Z</time></trkpt><trkpt lat="45.7085575" lon="9.5412461"><ele>263.99999999999994</ele><time>2026-04-05T12:41:33.972Z</time></trkpt><trkpt lat="45.7085003" lon="9.5411898"><ele>263.0</ele><time>2026-04-05T12:41:36.799Z</time></trkpt><trkpt lat="45.7084485" lon="9.5411173"><ele>262.0</ele><time>2026-04-05T12:41:40.024Z</time></trkpt><trkpt lat="45.7084069" lon="9.5410428"><ele>261.0</ele><time>2026-04-05T12:41:45.293Z</time></trkpt><trkpt lat="45.7083494" lon="9.540987"><ele>260.0</ele><time>2026-04-05T12:41:51.015Z</time></trkpt><trkpt lat="45.7082939" lon="9.5409164"><ele>258.99999999999994</ele><time>2026-04-05T12:41:53.895Z</time></trkpt><trkpt lat="45.7082526" lon="9.5408137"><ele>258.0</ele><time>2026-04-05T12:41:57.755Z</time></trkpt><trkpt lat="45.7082339" lon="9.5407238"><ele>257.99999999999994</ele><time>2026-04-05T12:42:00.633Z</time></trkpt><trkpt lat="45.7081585" lon="9.5406948"><ele>258.0</ele><time>2026-04-05T12:42:17.153Z</time></trkpt><trkpt lat="45.7080975" lon="9.5407229"><ele>258.0</ele><time>2026-04-05T12:42:20.012Z</time></trkpt><trkpt lat="45.7080331" lon="9.5407386"><ele>258.0</ele><time>2026-04-05T12:42:22.916Z</time></trkpt><trkpt lat="45.7079513" lon="9.5406778"><ele>258.0</ele><time>2026-04-05T12:42:25.755Z</time></trkpt><trkpt lat="45.7078933" lon="9.5406409"><ele>257.99999999999994</ele><time>2026-04-05T12:42:29.55Z</time></trkpt><trkpt lat="45.7078087" lon="9.5406525"><ele>258.0</ele><time>2026-04-05T12:42:40.075Z</time></trkpt><trkpt lat="45.7077252" lon="9.5406752"><ele>257.57142857142856</ele><time>2026-04-05T12:42:42.896Z</time></trkpt><trkpt lat="45.7076529" lon="9.5407118"><ele>257.1428571428571</ele><time>2026-04-05T12:42:45.736Z</time></trkpt><trkpt lat="45.7075961" lon="9.5407566"><ele>256.7142857142857</ele><time>2026-04-05T12:42:49.551Z</time></trkpt><trkpt lat="45.7075033" lon="9.5407713"><ele>256.2857142857143</ele><time>2026-04-05T12:43:00.034Z</time></trkpt><trkpt lat="45.7074373" lon="9.5407465"><ele>255.8571428571429</ele><time>2026-04-05T12:43:01.935Z</time></trkpt><trkpt lat="45.7073753" lon="9.5407786"><ele>255.42857142857144</ele><time>2026-04-05T12:43:04.792Z</time></trkpt><trkpt lat="45.7073173" lon="9.5408199"><ele>255.0</ele><time>2026-04-05T12:43:11.453Z</time></trkpt><trkpt lat="45.7072374" lon="9.5408129"><ele>255.0</ele><time>2026-04-05T12:43:20.911Z</time></trkpt><trkpt lat="45.7071577" lon="9.5407461"><ele>255.0</ele><time>2026-04-05T12:43:24.694Z</time></trkpt><trkpt lat="45.7071297" lon="9.5406605"><ele>255.0</ele><time>2026-04-05T12:43:28.491Z</time></trkpt><trkpt lat="45.7071033" lon="9.5404753"><ele>255.0</ele><time>2026-04-05T12:43:39.054Z</time></trkpt><trkpt lat="45.707083" lon="9.5403736"><ele>255.0</ele><time>2026-04-05T12:43:41.912Z</time></trkpt><trkpt lat="45.7070702" lon="9.540278"><ele>255.0</ele><time>2026-04-05T12:43:45.756Z</time></trkpt><trkpt lat="45.7070417" lon="9.5401933"><ele>255.0</ele><time>2026-04-05T12:43:51.472Z</time></trkpt><trkpt lat="45.7069798" lon="9.5400416"><ele>255.0</ele><time>2026-04-05T12:44:00.09Z</time></trkpt><trkpt lat="45.7069492" lon="9.5399394"><ele>255.0</ele><time>2026-04-05T12:44:02.994Z</time></trkpt><trkpt lat="45.7069042" lon="9.539872"><ele>255.0</ele><time>2026-04-05T12:44:07.791Z</time></trkpt><trkpt lat="45.7068726" lon="9.539779"><ele>255.0</ele><time>2026-04-05T12:44:13.593Z</time></trkpt><trkpt lat="45.7068107" lon="9.5396748"><ele>255.0</ele><time>2026-04-05T12:44:23.131Z</time></trkpt><trkpt lat="45.7067485" lon="9.5396041"><ele>255.0</ele><time>2026-04-05T12:44:26.035Z</time></trkpt><trkpt lat="45.7066819" lon="9.5395747"><ele>255.00000000000003</ele><time>2026-04-05T12:44:29.833Z</time></trkpt><trkpt lat="45.7066187" lon="9.5395432"><ele>255.0</ele><time>2026-04-05T12:44:35.593Z</time></trkpt><trkpt lat="45.706556" lon="9.5394853"><ele>255.0</ele><time>2026-04-05T12:44:47.151Z</time></trkpt><trkpt lat="45.7064932" lon="9.5394278"><ele>255.00000000000003</ele><time>2026-04-05T12:44:51.015Z</time></trkpt><trkpt lat="45.7064206" lon="9.5394153"><ele>255.0</ele><time>2026-04-05T12:44:52.912Z</time></trkpt><trkpt lat="45.706357" lon="9.5393837"><ele>255.0</ele><time>2026-04-05T12:44:55.851Z</time></trkpt><trkpt lat="45.7062989" lon="9.5393351"><ele>255.0</ele><time>2026-04-05T12:44:59.694Z</time></trkpt><trkpt lat="45.7061797" lon="9.5392798"><ele>255.0</ele><time>2026-04-05T12:45:13.133Z</time></trkpt><trkpt lat="45.7060989" lon="9.5392382"><ele>255.0</ele><time>2026-04-05T12:45:16.934Z</time></trkpt><trkpt lat="45.7060379" lon="9.539186"><ele>255.0</ele><time>2026-04-05T12:45:19.832Z</time></trkpt><trkpt lat="45.7059815" lon="9.5391364"><ele>255.0</ele><time>2026-04-05T12:45:24.714Z</time></trkpt><trkpt lat="45.7058321" lon="9.5390278"><ele>255.0</ele><time>2026-04-05T12:45:41.175Z</time></trkpt><trkpt lat="45.7057594" lon="9.5389895"><ele>255.00000000000003</ele><time>2026-04-05T12:45:44.094Z</time></trkpt><trkpt lat="45.7056936" lon="9.5389471"><ele>255.0</ele><time>2026-04-05T12:45:46.035Z</time></trkpt><trkpt lat="45.7056326" lon="9.5389078"><ele>255.0</ele><time>2026-04-05T12:45:49.889Z</time></trkpt><trkpt lat="45.7055797" lon="9.5388487"><ele>255.00000000000003</ele><time>2026-04-05T12:45:56.669Z</time></trkpt><trkpt lat="45.7055152" lon="9.5388223"><ele>255.0</ele><time>2026-04-05T12:46:09.151Z</time></trkpt><trkpt lat="45.7054483" lon="9.5387801"><ele>255.0</ele><time>2026-04-05T12:46:11.094Z</time></trkpt><trkpt lat="45.7053711" lon="9.5387709"><ele>255.0</ele><time>2026-04-05T12:46:13.033Z</time></trkpt><trkpt lat="45.7053297" lon="9.5388566"><ele>255.0</ele><time>2026-04-05T12:46:16.836Z</time></trkpt><trkpt lat="45.7053121" lon="9.5389503"><ele>255.0</ele><time>2026-04-05T12:46:22.594Z</time></trkpt><trkpt lat="45.7052929" lon="9.5390996"><ele>255.0</ele><time>2026-04-05T12:46:37.173Z</time></trkpt><trkpt lat="45.7052885" lon="9.5391993"><ele>255.0</ele><time>2026-04-05T12:46:39.096Z</time></trkpt><trkpt lat="45.705294" lon="9.5392968"><ele>255.0</ele><time>2026-04-05T12:46:42.013Z</time></trkpt><trkpt lat="45.705278" lon="9.5393906"><ele>255.0</ele><time>2026-04-05T12:46:44.931Z</time></trkpt><trkpt lat="45.7052518" lon="9.5394757"><ele>255.0</ele><time>2026-04-05T12:46:48.892Z</time></trkpt><trkpt lat="45.7052336" lon="9.5395636"><ele>250.0</ele><time>2026-04-05T12:46:54.651Z</time></trkpt><trkpt lat="45.7052351" lon="9.5396627"><ele>250.0</ele><time>2026-04-05T12:47:01.473Z</time></trkpt><trkpt lat="45.7051793" lon="9.5397263"><ele>250.0</ele><time>2026-04-05T12:47:11.411Z</time></trkpt></trkseg></trk></gpx>